<?xml version='1.0' encoding='UTF-8'?><gpx version="1.1" creator="JPX - https://github.com/jenetics/jpx" xmlns="http://www.topografix.com/GPX/1/1"><trk><trkseg><trkpt lat="27.917335779214294" lon="-15.577156892197062"><ele>958.0</ele><time>2026-05-05T07:40:37.999Z</time></trkpt><trkpt lat="27.917294718556406" lon="-15.577223014751995"><ele>958.0</ele><time>2026-05-05T07:40:46.999Z</time></trkpt><trkpt lat="27.917256683542266" lon="-15.577285158778693"><ele>958.0</ele><time>2026-05-05T07:40:53.999Z</time></trkpt><trkpt lat="27.917220629370437" lon="-15.577352755501664"><ele>958.0</ele><time>2026-05-05T07:41:14Z</time></trkpt><trkpt lat="27.917192730632536" lon="-15.577420339645537"><ele>958.0</ele><time>2026-05-05T07:41:21Z</time></trkpt><trkpt lat="27.91716534928515" lon="-15.577491376483142"><ele>958.0</ele><time>2026-05-05T07:41:35Z</time></trkpt><trkpt lat="27.917120557207614" lon="-15.577560847340077"><ele>958.0</ele><time>2026-05-05T07:41:42Z</time></trkpt><trkpt lat="27.91708794322261" lon="-15.577630358401068"><ele>958.0</ele><time>2026-05-05T07:41:48Z</time></trkpt><trkpt lat="27.91706178891312" lon="-15.577697036777995"><ele>958.0</ele><time>2026-05-05T07:41:54Z</time></trkpt><trkpt lat="27.917031158960263" lon="-15.577773093449085"><ele>958.0</ele><time>2026-05-05T07:42:00.999Z</time></trkpt><trkpt lat="27.91700540887753" lon="-15.577847272500593"><ele>958.0</ele><time>2026-05-05T07:42:07.999Z</time></trkpt><trkpt lat="27.916990196674757" lon="-15.577923673108327"><ele>958.0</ele><time>2026-05-05T07:42:14.999Z</time></trkpt><trkpt lat="27.916970640908552" lon="-15.577994088244052"><ele>958.0</ele><time>2026-05-05T07:42:21.999Z</time></trkpt><trkpt lat="27.916941620232738" lon="-15.578060047566085"><ele>958.0</ele><time>2026-05-05T07:42:28.999Z</time></trkpt><trkpt lat="27.916926001120185" lon="-15.57813540788379"><ele>958.8571428571429</ele><time>2026-05-05T07:42:37.999Z</time></trkpt><trkpt lat="27.916896439991568" lon="-15.57821009115638"><ele>959.7142857142858</ele><time>2026-05-05T07:42:44.999Z</time></trkpt><trkpt lat="27.91686361510041" lon="-15.578280172035496"><ele>960.5714285714287</ele><time>2026-05-05T07:42:50.999Z</time></trkpt><trkpt lat="27.916835602952037" lon="-15.578358455012625"><ele>961.4285714285714</ele><time>2026-05-05T07:42:57.999Z</time></trkpt><trkpt lat="27.916802584116432" lon="-15.578431199511542"><ele>962.2857142857144</ele><time>2026-05-05T07:43:04.998Z</time></trkpt><trkpt lat="27.916780510710552" lon="-15.578500603852932"><ele>963.1428571428572</ele><time>2026-05-05T07:43:11.998Z</time></trkpt><trkpt lat="27.91675452439468" lon="-15.578569492917264"><ele>964.0</ele><time>2026-05-05T07:43:18.998Z</time></trkpt><trkpt lat="27.91672262996518" lon="-15.578640971577418"><ele>965.4285714285714</ele><time>2026-05-05T07:43:26Z</time></trkpt><trkpt lat="27.916685074564704" lon="-15.578705366346025"><ele>966.8571428571429</ele><time>2026-05-05T07:43:32Z</time></trkpt><trkpt lat="27.91665324828095" lon="-15.578770579383795"><ele>968.2857142857143</ele><time>2026-05-05T07:43:38Z</time></trkpt><trkpt lat="27.916619490212927" lon="-15.57883079749597"><ele>969.7142857142858</ele><time>2026-05-05T07:43:44Z</time></trkpt><trkpt lat="27.91658157160892" lon="-15.578904588775183"><ele>971.1428571428571</ele><time>2026-05-05T07:43:52Z</time></trkpt><trkpt lat="27.916557275637896" lon="-15.578975941564916"><ele>972.5714285714287</ele><time>2026-05-05T07:43:59Z</time></trkpt><trkpt lat="27.91653319091139" lon="-15.579048838540874"><ele>974.0</ele><time>2026-05-05T07:44:05.999Z</time></trkpt><trkpt lat="27.91650731821866" lon="-15.579128035064798"><ele>974.0</ele><time>2026-05-05T07:44:13.999Z</time></trkpt><trkpt lat="27.916498919604575" lon="-15.579210186410748"><ele>974.0</ele><time>2026-05-05T07:44:21.999Z</time></trkpt><trkpt lat="27.916482313798895" lon="-15.579286341154122"><ele>974.0</ele><time>2026-05-05T07:44:29.999Z</time></trkpt><trkpt lat="27.916451430172717" lon="-15.579357594915384"><ele>974.0</ele><time>2026-05-05T07:44:36.999Z</time></trkpt><trkpt lat="27.91643763063171" lon="-15.579437555678208"><ele>974.0</ele><time>2026-05-05T07:44:43.999Z</time></trkpt><trkpt lat="27.916423119308874" lon="-15.579512626670445"><ele>974.0</ele><time>2026-05-05T07:45:02.999Z</time></trkpt><trkpt lat="27.916347636041305" lon="-15.579530389073962"><ele>974.0</ele><time>2026-05-05T07:45:19.998Z</time></trkpt><trkpt lat="27.91627566722464" lon="-15.579527920949577"><ele>975.0</ele><time>2026-05-05T07:45:28Z</time></trkpt><trkpt lat="27.91619466709288" lon="-15.579523314140518"><ele>976.0</ele><time>2026-05-05T07:45:35Z</time></trkpt><trkpt lat="27.91613196010063" lon="-15.579549420535562"><ele>977.0</ele><time>2026-05-05T07:45:44Z</time></trkpt><trkpt lat="27.91608559276481" lon="-15.579606683571063"><ele>978.0</ele><time>2026-05-05T07:45:51Z</time></trkpt><trkpt lat="27.916079496265223" lon="-15.57968149667253"><ele>979.0</ele><time>2026-05-05T07:46:00Z</time></trkpt><trkpt lat="27.916094995751656" lon="-15.579754571433652"><ele>980.0</ele><time>2026-05-05T07:46:16.999Z</time></trkpt><trkpt lat="27.916097638896485" lon="-15.579831544687798"><ele>981.0</ele><time>2026-05-05T07:46:25.999Z</time></trkpt><trkpt lat="27.91609194894034" lon="-15.579903962517248"><ele>981.0</ele><time>2026-05-05T07:46:33.999Z</time></trkpt><trkpt lat="27.916089608457096" lon="-15.579980923310652"><ele>981.0</ele><time>2026-05-05T07:46:40.999Z</time></trkpt><trkpt lat="27.91608048330354" lon="-15.5800551371464"><ele>981.0</ele><time>2026-05-05T07:46:46.999Z</time></trkpt><trkpt lat="27.916077153786315" lon="-15.580154164853298"><ele>981.0</ele><time>2026-05-05T07:46:53.999Z</time></trkpt><trkpt lat="27.916046231194223" lon="-15.580219164576286"><ele>981.0</ele><time>2026-05-05T07:46:59.999Z</time></trkpt><trkpt lat="27.916042939120004" lon="-15.580304893510155"><ele>981.0</ele><time>2026-05-05T07:47:06.999Z</time></trkpt><trkpt lat="27.916034444113862" lon="-15.580378529228057"><ele>981.0</ele><time>2026-05-05T07:47:13.999Z</time></trkpt><trkpt lat="27.916022735871522" lon="-15.580449389932339"><ele>982.4285714285714</ele><time>2026-05-05T07:47:18.999Z</time></trkpt><trkpt lat="27.916022613751814" lon="-15.58052198503201"><ele>983.8571428571429</ele><time>2026-05-05T07:47:25.998Z</time></trkpt><trkpt lat="27.916008388073994" lon="-15.580602455058884"><ele>985.2857142857143</ele><time>2026-05-05T07:47:35Z</time></trkpt><trkpt lat="27.916009481738463" lon="-15.580688338749185"><ele>986.7142857142858</ele><time>2026-05-05T07:47:43Z</time></trkpt><trkpt lat="27.916011719015817" lon="-15.580760874694226"><ele>988.1428571428571</ele><time>2026-05-05T07:47:49Z</time></trkpt><trkpt lat="27.916006125411304" lon="-15.580837170805586"><ele>989.5714285714287</ele><time>2026-05-05T07:47:57Z</time></trkpt><trkpt lat="27.916004353340885" lon="-15.580915117269246"><ele>991.0000000000001</ele><time>2026-05-05T07:48:10Z</time></trkpt><trkpt lat="27.915991843323226" lon="-15.580994839836805"><ele>991.0000000000001</ele><time>2026-05-05T07:48:17.999Z</time></trkpt><trkpt lat="27.91597550238629" lon="-15.581070761492978"><ele>991.0</ele><time>2026-05-05T07:48:25.999Z</time></trkpt><trkpt lat="27.91596839167356" lon="-15.581147357554233"><ele>991.0000000000001</ele><time>2026-05-05T07:48:33.999Z</time></trkpt><trkpt lat="27.915964197656017" lon="-15.581223033563937"><ele>991.0000000000001</ele><time>2026-05-05T07:48:42.999Z</time></trkpt><trkpt lat="27.915971087599047" lon="-15.581298591496857"><ele>991.0</ele><time>2026-05-05T07:48:55.999Z</time></trkpt><trkpt lat="27.91599041378793" lon="-15.581379827783689"><ele>991.0000000000001</ele><time>2026-05-05T07:49:11.999Z</time></trkpt><trkpt lat="27.91593563854878" lon="-15.581434077464023"><ele>991.0000000000001</ele><time>2026-05-05T07:49:19.999Z</time></trkpt><trkpt lat="27.915876157955676" lon="-15.581461414334417"><ele>993.4285714285716</ele><time>2026-05-05T07:50:23.999Z</time></trkpt><trkpt lat="27.915822251625176" lon="-15.581512100423978"><ele>995.8571428571429</ele><time>2026-05-05T07:50:31.999Z</time></trkpt><trkpt lat="27.91575409991068" lon="-15.58151899630352"><ele>998.2857142857143</ele><time>2026-05-05T07:50:38.999Z</time></trkpt><trkpt lat="27.915681456469816" lon="-15.581525729873345"><ele>1000.7142857142858</ele><time>2026-05-05T07:50:47.999Z</time></trkpt><trkpt lat="27.915619498709813" lon="-15.581497074343403"><ele>1003.1428571428571</ele><time>2026-05-05T07:50:52.999Z</time></trkpt><trkpt lat="27.91555056591165" lon="-15.581483303236395"><ele>1005.5714285714286</ele><time>2026-05-05T07:50:58.999Z</time></trkpt><trkpt lat="27.915622308946922" lon="-15.581505662744924"><ele>1008.0</ele><time>2026-05-05T07:51:28.999Z</time></trkpt><trkpt lat="27.915685903702077" lon="-15.581516081279787"><ele>1008.0</ele><time>2026-05-05T07:51:34.998Z</time></trkpt><trkpt lat="27.915749631693586" lon="-15.581515872649115"><ele>1008.0</ele><time>2026-05-05T07:51:39.998Z</time></trkpt><trkpt lat="27.91582724250019" lon="-15.581504189134748"><ele>1008.0</ele><time>2026-05-05T07:51:46Z</time></trkpt><trkpt lat="27.915890089398612" lon="-15.581483341493783"><ele>1008.0</ele><time>2026-05-05T07:51:51Z</time></trkpt><trkpt lat="27.915929105043055" lon="-15.581422263711577"><ele>1008.0</ele><time>2026-05-05T07:52:00Z</time></trkpt><trkpt lat="27.915984077276327" lon="-15.581475753467654"><ele>1008.0</ele><time>2026-05-05T07:52:11Z</time></trkpt><trkpt lat="27.916016375922304" lon="-15.581545104551035"><ele>1008.0</ele><time>2026-05-05T07:52:20Z</time></trkpt><trkpt lat="27.916060814660312" lon="-15.581628854221794"><ele>1007.5714285714286</ele><time>2026-05-05T07:52:29.999Z</time></trkpt><trkpt lat="27.916031116562667" lon="-15.581702515326985"><ele>1007.1428571428571</ele><time>2026-05-05T07:52:50.999Z</time></trkpt><trkpt lat="27.916036642944047" lon="-15.581776075085298"><ele>1006.7142857142858</ele><time>2026-05-05T07:52:58.999Z</time></trkpt><trkpt lat="27.916050551744686" lon="-15.58185326101202"><ele>1006.2857142857143</ele><time>2026-05-05T07:53:06.999Z</time></trkpt><trkpt lat="27.91602675947545" lon="-15.581924148264378"><ele>1005.8571428571429</ele><time>2026-05-05T07:53:14.999Z</time></trkpt><trkpt lat="27.916024563679695" lon="-15.581998133801292"><ele>1005.4285714285716</ele><time>2026-05-05T07:53:22.999Z</time></trkpt><trkpt lat="27.916045526553475" lon="-15.582069722252296"><ele>1005.0000000000001</ele><time>2026-05-05T07:53:52Z</time></trkpt><trkpt lat="27.916052725191463" lon="-15.582160892718083"><ele>1006.857142857143</ele><time>2026-05-05T07:54:04Z</time></trkpt><trkpt lat="27.916028447803452" lon="-15.582228317439618"><ele>1008.7142857142858</ele><time>2026-05-05T07:54:17Z</time></trkpt><trkpt lat="27.91602763848778" lon="-15.582301334994545"><ele>1010.5714285714286</ele><time>2026-05-05T07:54:26Z</time></trkpt><trkpt lat="27.916042467691796" lon="-15.582372362222419"><ele>1012.4285714285714</ele><time>2026-05-05T07:54:37.999Z</time></trkpt><trkpt lat="27.91603470247158" lon="-15.582451282494693"><ele>1014.2857142857142</ele><time>2026-05-05T07:54:51.999Z</time></trkpt><trkpt lat="27.9160270052989" lon="-15.582530185569922"><ele>1016.142857142857</ele><time>2026-05-05T07:55:05.999Z</time></trkpt><trkpt lat="27.916005409941064" lon="-15.58260260068488"><ele>1017.9999999999999</ele><time>2026-05-05T07:55:16.999Z</time></trkpt><trkpt lat="27.915984606305965" lon="-15.582754219137533"><ele>1017.9999999999999</ele><time>2026-05-05T07:55:38.999Z</time></trkpt><trkpt lat="27.91599805872349" lon="-15.582830651313213"><ele>1018.0</ele><time>2026-05-05T07:55:51.998Z</time></trkpt><trkpt lat="27.915988829602014" lon="-15.582902765052292"><ele>1018.0</ele><time>2026-05-05T07:56:05Z</time></trkpt><trkpt lat="27.915976951813583" lon="-15.582975533554027"><ele>1018.0</ele><time>2026-05-05T07:56:20Z</time></trkpt><trkpt lat="27.91596759507131" lon="-15.583057558843453"><ele>1017.9999999999999</ele><time>2026-05-05T07:56:56.999Z</time></trkpt><trkpt lat="27.91596754800682" lon="-15.58320354297323"><ele>1018.0</ele><time>2026-05-05T07:57:45.999Z</time></trkpt><trkpt lat="27.915961009143977" lon="-15.583286447794448"><ele>1021.1666666666666</ele><time>2026-05-05T07:58:05Z</time></trkpt><trkpt lat="27.91596454288472" lon="-15.583358548973314"><ele>1024.3333333333333</ele><time>2026-05-05T07:58:20Z</time></trkpt><trkpt lat="27.91595830348276" lon="-15.583442646872738"><ele>1027.5</ele><time>2026-05-05T07:58:32Z</time></trkpt><trkpt lat="27.915929103332715" lon="-15.583540264061737"><ele>1030.6666666666667</ele><time>2026-05-05T07:58:55Z</time></trkpt><trkpt lat="27.91592755084866" lon="-15.583615133489529"><ele>1033.8333333333335</ele><time>2026-05-05T07:59:06.999Z</time></trkpt><trkpt lat="27.91590815593923" lon="-15.583692962545417"><ele>1037.0</ele><time>2026-05-05T07:59:29.999Z</time></trkpt><trkpt lat="27.91585677599203" lon="-15.583775802509301"><ele>1042.3333333333335</ele><time>2026-05-05T08:00:01.999Z</time></trkpt><trkpt lat="27.915830806415894" lon="-15.58385694336388"><ele>1047.6666666666667</ele><time>2026-05-05T08:01:01.999Z</time></trkpt><trkpt lat="27.91583335663875" lon="-15.583934489225456"><ele>1053.0</ele><time>2026-05-05T08:01:19.999Z</time></trkpt><trkpt lat="27.91578759211922" lon="-15.584022138272303"><ele>1058.3333333333333</ele><time>2026-05-05T08:01:31.999Z</time></trkpt><trkpt lat="27.915781780766796" lon="-15.584100088394438"><ele>1063.6666666666665</ele><time>2026-05-05T08:01:43.999Z</time></trkpt><trkpt lat="27.91575302887886" lon="-15.584185077149328"><ele>1069.0</ele><time>2026-05-05T08:02:21Z</time></trkpt><trkpt lat="27.91573152665138" lon="-15.584299882547285"><ele>1069.0</ele><time>2026-05-05T08:02:44Z</time></trkpt><trkpt lat="27.915740086781554" lon="-15.584381098210079"><ele>1069.0</ele><time>2026-05-05T08:02:56Z</time></trkpt><trkpt lat="27.915741569803853" lon="-15.584457146281188"><ele>1069.0</ele><time>2026-05-05T08:03:10.999Z</time></trkpt><trkpt lat="27.915724981833133" lon="-15.584527708353995"><ele>1069.0</ele><time>2026-05-05T08:03:30.999Z</time></trkpt><trkpt lat="27.915737698489497" lon="-15.584604254162901"><ele>1069.0</ele><time>2026-05-05T08:03:44.999Z</time></trkpt><trkpt lat="27.915754941225366" lon="-15.584675550863201"><ele>1069.0</ele><time>2026-05-05T08:04:07.999Z</time></trkpt><trkpt lat="27.91574072717137" lon="-15.58475184006021"><ele>1069.0</ele><time>2026-05-05T08:04:32Z</time></trkpt><trkpt lat="27.915767754378525" lon="-15.584819283464293"><ele>1073.2857142857142</ele><time>2026-05-05T08:04:48Z</time></trkpt><trkpt lat="27.915774831884946" lon="-15.584890700592421"><ele>1077.5714285714287</ele><time>2026-05-05T08:05:08Z</time></trkpt><trkpt lat="27.91575662195548" lon="-15.584965169631088"><ele>1081.857142857143</ele><time>2026-05-05T08:05:48.999Z</time></trkpt><trkpt lat="27.915796970719786" lon="-15.58502548005795"><ele>1086.142857142857</ele><time>2026-05-05T08:07:42.999Z</time></trkpt><trkpt lat="27.91580577410305" lon="-15.585112163421181"><ele>1090.4285714285716</ele><time>2026-05-05T08:08:06.999Z</time></trkpt><trkpt lat="27.91585809600649" lon="-15.585154680708484"><ele>1094.7142857142858</ele><time>2026-05-05T08:08:36Z</time></trkpt><trkpt lat="27.91592652440326" lon="-15.585214187365615"><ele>1099.0</ele><time>2026-05-05T08:09:08Z</time></trkpt><trkpt lat="27.915975994405745" lon="-15.58527074943916"><ele>1099.4285714285713</ele><time>2026-05-05T08:09:23.999Z</time></trkpt><trkpt lat="27.9160235157979" lon="-15.585332580356601"><ele>1099.857142857143</ele><time>2026-05-05T08:10:21.999Z</time></trkpt><trkpt lat="27.91608986757391" lon="-15.585340698241733"><ele>1100.2857142857142</ele><time>2026-05-05T08:10:44Z</time></trkpt><trkpt lat="27.916115262175826" lon="-15.585409358234141"><ele>1100.7142857142858</ele><time>2026-05-05T08:11:00Z</time></trkpt><trkpt lat="27.91614674081256" lon="-15.585505780795351"><ele>1101.142857142857</ele><time>2026-05-05T08:12:10.999Z</time></trkpt><trkpt lat="27.916205718724125" lon="-15.58553641269222"><ele>1101.5714285714284</ele><time>2026-05-05T08:13:44.999Z</time></trkpt><trkpt lat="27.916232628340758" lon="-15.585620966633316"><ele>1102.0</ele><time>2026-05-05T08:14:26.999Z</time></trkpt><trkpt lat="27.91630768099916" lon="-15.585635888112835"><ele>1107.7142857142856</ele><time>2026-05-05T08:14:49Z</time></trkpt><trkpt lat="27.916365591373324" lon="-15.585681169104994"><ele>1113.4285714285713</ele><time>2026-05-05T08:15:01Z</time></trkpt><trkpt lat="27.91642947426695" lon="-15.585678611453032"><ele>1119.142857142857</ele><time>2026-05-05T08:15:31Z</time></trkpt><trkpt lat="27.91648523255564" lon="-15.585731529669753"><ele>1124.8571428571427</ele><time>2026-05-05T08:16:35.999Z</time></trkpt><trkpt lat="27.91654845247887" lon="-15.58577865392283"><ele>1130.5714285714284</ele><time>2026-05-05T08:16:56Z</time></trkpt><trkpt lat="27.916599323401737" lon="-15.585837578218625"><ele>1136.2857142857142</ele><time>2026-05-05T08:17:05Z</time></trkpt><trkpt lat="27.916587336820243" lon="-15.58591484000795"><ele>1142.0</ele><time>2026-05-05T08:17:27Z</time></trkpt><trkpt lat="27.91663821450175" lon="-15.586014715405879"><ele>1142.0</ele><time>2026-05-05T08:18:22.999Z</time></trkpt><trkpt lat="27.916661356997952" lon="-15.586081768753418"><ele>1142.0</ele><time>2026-05-05T08:19:40.999Z</time></trkpt><trkpt lat="27.916750737280086" lon="-15.586128916469855"><ele>1142.0</ele><time>2026-05-05T08:20:24.999Z</time></trkpt><trkpt lat="27.916793041309923" lon="-15.586188652327786"><ele>1142.0</ele><time>2026-05-05T08:20:43.999Z</time></trkpt><trkpt lat="27.9168594268331" lon="-15.586211334982007"><ele>1142.0</ele><time>2026-05-05T08:20:53.999Z</time></trkpt><trkpt lat="27.9169356435499" lon="-15.58624520250048"><ele>1142.0</ele><time>2026-05-05T08:21:23Z</time></trkpt><trkpt lat="27.917009016694738" lon="-15.586322116235014"><ele>1151.3333333333335</ele><time>2026-05-05T08:22:24Z</time></trkpt><trkpt lat="27.91708549118457" lon="-15.58626563628319"><ele>1160.6666666666667</ele><time>2026-05-05T08:22:56.999Z</time></trkpt><trkpt lat="27.917153892157835" lon="-15.586292709085908"><ele>1170.0</ele><time>2026-05-05T08:23:10.999Z</time></trkpt><trkpt lat="27.917215693876148" lon="-15.586334452709949"><ele>1179.3333333333333</ele><time>2026-05-05T08:23:26Z</time></trkpt><trkpt lat="27.917274645370103" lon="-15.586360586172882"><ele>1188.6666666666665</ele><time>2026-05-05T08:23:56Z</time></trkpt><trkpt lat="27.917357911605166" lon="-15.586428317805337"><ele>1198.0</ele><time>2026-05-05T08:24:18Z</time></trkpt><trkpt lat="27.917465805057386" lon="-15.58640724435655"><ele>1198.0</ele><time>2026-05-05T08:25:01.999Z</time></trkpt><trkpt lat="27.917502699489834" lon="-15.586467675258428"><ele>1198.0</ele><time>2026-05-05T08:25:16.999Z</time></trkpt><trkpt lat="27.91753792911842" lon="-15.586540559687794"><ele>1198.0</ele><time>2026-05-05T08:25:30Z</time></trkpt><trkpt lat="27.91753641015366" lon="-15.586620250521849"><ele>1198.0</ele><time>2026-05-05T08:25:42Z</time></trkpt><trkpt lat="27.91758133896364" lon="-15.58656457146204"><ele>1198.0</ele><time>2026-05-05T08:26:12Z</time></trkpt><trkpt lat="27.9176446097727" lon="-15.586587325529775"><ele>1198.0</ele><time>2026-05-05T08:26:27Z</time></trkpt><trkpt lat="27.917633978705005" lon="-15.586665629109534"><ele>1198.0</ele><time>2026-05-05T08:26:37Z</time></trkpt><trkpt lat="27.917601159728765" lon="-15.586734508881383"><ele>1198.0</ele><time>2026-05-05T08:26:47Z</time></trkpt><trkpt lat="27.91754860207916" lon="-15.586778949718216"><ele>1198.0</ele><time>2026-05-05T08:27:03.999Z</time></trkpt><trkpt lat="27.91750174562157" lon="-15.586832488976153"><ele>1198.0</ele><time>2026-05-05T08:27:16.999Z</time></trkpt><trkpt lat="27.917392422866836" lon="-15.58686000989929"><ele>1198.0</ele><time>2026-05-05T08:27:46Z</time></trkpt><trkpt lat="27.917343584110046" lon="-15.586907744981701"><ele>1198.0</ele><time>2026-05-05T08:28:25Z</time></trkpt><trkpt lat="27.91728216133017" lon="-15.586972403593126"><ele>1198.0</ele><time>2026-05-05T08:29:13.999Z</time></trkpt><trkpt lat="27.91722507789445" lon="-15.587006239431505"><ele>1206.0</ele><time>2026-05-05T08:29:25.999Z</time></trkpt><trkpt lat="27.917175553865746" lon="-15.587060874451447"><ele>1214.0</ele><time>2026-05-05T08:29:35Z</time></trkpt><trkpt lat="27.917121903369452" lon="-15.587113179527389"><ele>1222.0</ele><time>2026-05-05T08:29:45Z</time></trkpt><trkpt lat="27.91706619458103" lon="-15.587160331593681"><ele>1230.0</ele><time>2026-05-05T08:29:56Z</time></trkpt><trkpt lat="27.917027866694234" lon="-15.58722226848262"><ele>1238.0</ele><time>2026-05-05T08:30:13Z</time></trkpt><trkpt lat="27.916954932017155" lon="-15.587286139628365"><ele>1246.0</ele><time>2026-05-05T08:30:30Z</time></trkpt><trkpt lat="27.91691642521888" lon="-15.587344228479186"><ele>1254.0</ele><time>2026-05-05T08:31:23.999Z</time></trkpt><trkpt lat="27.916807966100386" lon="-15.587367228090056"><ele>1254.0</ele><time>2026-05-05T08:32:12Z</time></trkpt><trkpt lat="27.916770072787536" lon="-15.58743493596937"><ele>1254.0</ele><time>2026-05-05T08:32:35Z</time></trkpt><trkpt lat="27.916744376845806" lon="-15.587503523232792"><ele>1254.0</ele><time>2026-05-05T08:32:47Z</time></trkpt><trkpt lat="27.91668102088283" lon="-15.587529852512239"><ele>1254.0</ele><time>2026-05-05T08:33:17.999Z</time></trkpt><trkpt lat="27.916609751635928" lon="-15.587545631017145"><ele>1254.0</ele><time>2026-05-05T08:33:38.999Z</time></trkpt><trkpt lat="27.916540653761423" lon="-15.587441237775398"><ele>1254.0</ele><time>2026-05-05T08:34:10Z</time></trkpt><trkpt lat="27.916488734070715" lon="-15.58748189163217"><ele>1252.7142857142858</ele><time>2026-05-05T08:34:57Z</time></trkpt><trkpt lat="27.916420935071557" lon="-15.587516217718298"><ele>1251.4285714285713</ele><time>2026-05-05T08:35:07.999Z</time></trkpt><trkpt lat="27.916365638922223" lon="-15.587552865030272"><ele>1250.142857142857</ele><time>2026-05-05T08:35:38.999Z</time></trkpt><trkpt lat="27.916302379626135" lon="-15.58756258684453"><ele>1248.857142857143</ele><time>2026-05-05T08:35:47.999Z</time></trkpt><trkpt lat="27.916251380863493" lon="-15.58760629379434"><ele>1247.5714285714287</ele><time>2026-05-05T08:36:02Z</time></trkpt><trkpt lat="27.91617719844968" lon="-15.587606727643038"><ele>1246.2857142857142</ele><time>2026-05-05T08:36:18Z</time></trkpt><trkpt lat="27.91611061412025" lon="-15.587617492598259"><ele>1245.0</ele><time>2026-05-05T08:36:26Z</time></trkpt><trkpt lat="27.916040106660176" lon="-15.58764700836892"><ele>1245.0</ele><time>2026-05-05T08:37:13.999Z</time></trkpt><trkpt lat="27.915996986200952" lon="-15.587707782555539"><ele>1245.0</ele><time>2026-05-05T08:37:25.999Z</time></trkpt><trkpt lat="27.915911945686968" lon="-15.587766450888992"><ele>1245.0</ele><time>2026-05-05T08:38:16Z</time></trkpt><trkpt lat="27.915878727048458" lon="-15.587842989521034"><ele>1245.0</ele><time>2026-05-05T08:38:28Z</time></trkpt><trkpt lat="27.91578552437904" lon="-15.587933027684269"><ele>1245.0</ele><time>2026-05-05T08:39:25.999Z</time></trkpt><trkpt lat="27.91573222859406" lon="-15.587986968940358"><ele>1245.0</ele><time>2026-05-05T08:40:15Z</time></trkpt><trkpt lat="27.915674757647256" lon="-15.58804152769693"><ele>1255.1666666666667</ele><time>2026-05-05T08:40:31Z</time></trkpt><trkpt lat="27.915630882500412" lon="-15.5881166813614"><ele>1265.3333333333333</ele><time>2026-05-05T08:40:54Z</time></trkpt><trkpt lat="27.915534894992668" lon="-15.588124817365474"><ele>1275.5</ele><time>2026-05-05T08:41:09Z</time></trkpt><trkpt lat="27.915495400341655" lon="-15.588184616553027"><ele>1285.6666666666665</ele><time>2026-05-05T08:41:32.999Z</time></trkpt><trkpt lat="27.915428184181458" lon="-15.588175736007287"><ele>1295.8333333333333</ele><time>2026-05-05T08:41:41.999Z</time></trkpt><trkpt lat="27.91535922448347" lon="-15.588190629370867"><ele>1306.0</ele><time>2026-05-05T08:41:52.999Z</time></trkpt><trkpt lat="27.915288893068002" lon="-15.58820138225219"><ele>1306.0000000000002</ele><time>2026-05-05T08:42:21Z</time></trkpt><trkpt lat="27.9152415282942" lon="-15.588259094046187"><ele>1306.0</ele><time>2026-05-05T08:42:28Z</time></trkpt><trkpt lat="27.915164515897605" lon="-15.588275068781062"><ele>1306.0</ele><time>2026-05-05T08:43:09.999Z</time></trkpt><trkpt lat="27.91514939521624" lon="-15.588344817435035"><ele>1306.0</ele><time>2026-05-05T08:43:13.999Z</time></trkpt><trkpt lat="27.9151438635994" lon="-15.588424095388957"><ele>1306.0</ele><time>2026-05-05T08:43:38.999Z</time></trkpt><trkpt lat="27.9150934995867" lon="-15.58846752668357"><ele>1306.0000000000002</ele><time>2026-05-05T08:43:53.999Z</time></trkpt><trkpt lat="27.915054028906983" lon="-15.588523651779822"><ele>1306.0</ele><time>2026-05-05T08:44:04.999Z</time></trkpt><trkpt lat="27.914980376076315" lon="-15.58848512398077"><ele>1304.1428571428573</ele><time>2026-05-05T08:44:08.999Z</time></trkpt><trkpt lat="27.914916841660126" lon="-15.588451558605076"><ele>1302.2857142857142</ele><time>2026-05-05T08:44:14.999Z</time></trkpt><trkpt lat="27.91485386185861" lon="-15.588483091061626"><ele>1300.4285714285716</ele><time>2026-05-05T08:44:50.999Z</time></trkpt><trkpt lat="27.91479282493225" lon="-15.588522099187829"><ele>1298.5714285714287</ele><time>2026-05-05T08:45:04.999Z</time></trkpt><trkpt lat="27.91471411142113" lon="-15.5885680201851"><ele>1296.7142857142858</ele><time>2026-05-05T08:45:11.999Z</time></trkpt><trkpt lat="27.914650415024067" lon="-15.588571059677689"><ele>1294.857142857143</ele><time>2026-05-05T08:45:22.999Z</time></trkpt><trkpt lat="27.91457966318029" lon="-15.588559951366376"><ele>1293.0</ele><time>2026-05-05T08:45:28.999Z</time></trkpt><trkpt lat="27.914506537389492" lon="-15.588559646275778"><ele>1293.0</ele><time>2026-05-05T08:46:18.999Z</time></trkpt><trkpt lat="27.914434650540112" lon="-15.588536977861166"><ele>1293.0</ele><time>2026-05-05T08:46:36Z</time></trkpt><trkpt lat="27.914374536906326" lon="-15.588513006374672"><ele>1293.0</ele><time>2026-05-05T08:46:48Z</time></trkpt><trkpt lat="27.914315798001024" lon="-15.588480644255705"><ele>1293.0</ele><time>2026-05-05T08:46:54Z</time></trkpt><trkpt lat="27.91424785372269" lon="-15.588453724118455"><ele>1293.0</ele><time>2026-05-05T08:47:00Z</time></trkpt><trkpt lat="27.914187180800432" lon="-15.588422879728643"><ele>1293.0</ele><time>2026-05-05T08:47:08Z</time></trkpt><trkpt lat="27.914110867748157" lon="-15.58840965372268"><ele>1293.0</ele><time>2026-05-05T08:47:16Z</time></trkpt><trkpt lat="27.91404267332335" lon="-15.588417319229402"><ele>1293.8333333333333</ele><time>2026-05-05T08:47:23.999Z</time></trkpt><trkpt lat="27.913963429796542" lon="-15.588407357865309"><ele>1294.6666666666667</ele><time>2026-05-05T08:47:32.999Z</time></trkpt><trkpt lat="27.913897437851244" lon="-15.588400960375429"><ele>1295.5</ele><time>2026-05-05T08:47:36.999Z</time></trkpt><trkpt lat="27.913807306215965" lon="-15.588378751982289"><ele>1296.3333333333335</ele><time>2026-05-05T08:47:52.999Z</time></trkpt><trkpt lat="27.91375319225202" lon="-15.5883337732913"><ele>1297.1666666666667</ele><time>2026-05-05T08:48:02.999Z</time></trkpt><trkpt lat="27.913685059982726" lon="-15.588331870688632"><ele>1298.0</ele><time>2026-05-05T08:48:12.999Z</time></trkpt><trkpt lat="27.913607620743697" lon="-15.588329578187711"><ele>1297.9999999999998</ele><time>2026-05-05T08:48:20.999Z</time></trkpt><trkpt lat="27.913535520912138" lon="-15.588327165056134"><ele>1298.0</ele><time>2026-05-05T08:48:28Z</time></trkpt><trkpt lat="27.91346489458103" lon="-15.588346507934302"><ele>1298.0</ele><time>2026-05-05T08:48:34Z</time></trkpt><trkpt lat="27.913436823511717" lon="-15.588280562673258"><ele>1298.0</ele><time>2026-05-05T08:48:46Z</time></trkpt><trkpt lat="27.91337533289069" lon="-15.588309136752262"><ele>1298.0</ele><time>2026-05-05T08:49:08Z</time></trkpt><trkpt lat="27.913316555634786" lon="-15.588359705771031"><ele>1297.9999999999998</ele><time>2026-05-05T08:49:18Z</time></trkpt><trkpt lat="27.913252024345894" lon="-15.588348801179983"><ele>1298.0</ele><time>2026-05-05T08:49:25Z</time></trkpt><trkpt lat="27.91320468872732" lon="-15.588403528866436"><ele>1296.4</ele><time>2026-05-05T08:49:33Z</time></trkpt><trkpt lat="27.913139850026525" lon="-15.588423731262203"><ele>1294.8000000000002</ele><time>2026-05-05T08:49:50Z</time></trkpt><trkpt lat="27.913044630937662" lon="-15.588399352343565"><ele>1293.2</ele><time>2026-05-05T08:50:13.999Z</time></trkpt><trkpt lat="27.913068374025634" lon="-15.588274839703901"><ele>1291.6</ele><time>2026-05-05T08:50:27.999Z</time></trkpt><trkpt lat="27.912973961173684" lon="-15.588192258295251"><ele>1290.0</ele><time>2026-05-05T08:50:52Z</time></trkpt><trkpt lat="27.912976155544783" lon="-15.588119670962595"><ele>1290.0</ele><time>2026-05-05T08:50:59Z</time></trkpt><trkpt lat="27.912938428699327" lon="-15.588052598909167"><ele>1290.0</ele><time>2026-05-05T08:51:05Z</time></trkpt><trkpt lat="27.912917954825456" lon="-15.587977884017434"><ele>1290.0</ele><time>2026-05-05T08:51:11Z</time></trkpt><trkpt lat="27.912906725450576" lon="-15.587898115414932"><ele>1290.0</ele><time>2026-05-05T08:51:20Z</time></trkpt><trkpt lat="27.912888618063818" lon="-15.587823334620394"><ele>1290.0</ele><time>2026-05-05T08:51:26Z</time></trkpt><trkpt lat="27.9128717075275" lon="-15.587751110393329"><ele>1290.0</ele><time>2026-05-05T08:51:33Z</time></trkpt><trkpt lat="27.912876258096937" lon="-15.587676417939672"><ele>1290.0</ele><time>2026-05-05T08:51:39Z</time></trkpt><trkpt lat="27.912845376451497" lon="-15.587604008864997"><ele>1290.0</ele><time>2026-05-05T08:51:46Z</time></trkpt><trkpt lat="27.91278227080007" lon="-15.587628892328796"><ele>1290.0</ele><time>2026-05-05T08:52:22.999Z</time></trkpt><trkpt lat="27.91274801920658" lon="-15.587569103216966"><ele>1290.0</ele><time>2026-05-05T09:01:49Z</time></trkpt><trkpt lat="27.912803684587566" lon="-15.58760269748415"><ele>1290.0</ele><time>2026-05-05T09:08:52.999Z</time></trkpt><trkpt lat="27.912833570863427" lon="-15.58767214405727"><ele>1290.0</ele><time>2026-05-05T09:09:06.999Z</time></trkpt><trkpt lat="27.912858911002548" lon="-15.587747877171228"><ele>1290.0</ele><time>2026-05-05T09:09:13.999Z</time></trkpt><trkpt lat="27.91287158603024" lon="-15.587819375113604"><ele>1290.0</ele><time>2026-05-05T09:09:22.999Z</time></trkpt><trkpt lat="27.91289602382229" lon="-15.587889306995603"><ele>1290.0</ele><time>2026-05-05T09:09:29Z</time></trkpt><trkpt lat="27.912913776521485" lon="-15.587970740355962"><ele>1290.0</ele><time>2026-05-05T09:09:36Z</time></trkpt><trkpt lat="27.91293080518837" lon="-15.588039787213997"><ele>1290.0</ele><time>2026-05-05T09:09:42Z</time></trkpt><trkpt lat="27.912962526544153" lon="-15.588110168459018"><ele>1290.0</ele><time>2026-05-05T09:09:48Z</time></trkpt><trkpt lat="27.912980083044324" lon="-15.588186519072586"><ele>1290.0</ele><time>2026-05-05T09:09:55Z</time></trkpt><trkpt lat="27.912997539033306" lon="-15.588257173407015"><ele>1290.0</ele><time>2026-05-05T09:10:08Z</time></trkpt><trkpt lat="27.91305098998598" lon="-15.58830822619738"><ele>1290.0</ele><time>2026-05-05T09:10:16.999Z</time></trkpt><trkpt lat="27.91307843030642" lon="-15.58837739477146"><ele>1290.0</ele><time>2026-05-05T09:10:23.999Z</time></trkpt><trkpt lat="27.91312528181228" lon="-15.588430239795835"><ele>1290.0</ele><time>2026-05-05T09:10:29.999Z</time></trkpt><trkpt lat="27.91317567179034" lon="-15.588481510557834"><ele>1290.0</ele><time>2026-05-05T09:10:35.999Z</time></trkpt><trkpt lat="27.913164927459466" lon="-15.588564975392554"><ele>1290.0</ele><time>2026-05-05T09:10:44.999Z</time></trkpt><trkpt lat="27.91313089175232" lon="-15.588629727413986"><ele>1290.0</ele><time>2026-05-05T09:10:52.999Z</time></trkpt><trkpt lat="27.913121970641328" lon="-15.588704228679747"><ele>1290.0</ele><time>2026-05-05T09:10:58.999Z</time></trkpt><trkpt lat="27.91311796072505" lon="-15.588781423623825"><ele>1290.0</ele><time>2026-05-05T09:11:05.999Z</time></trkpt><trkpt lat="27.91311534115486" lon="-15.588854480359016"><ele>1290.4285714285716</ele><time>2026-05-05T09:11:13.999Z</time></trkpt><trkpt lat="27.913118747908015" lon="-15.588945663823043"><ele>1290.8571428571427</ele><time>2026-05-05T09:11:28.999Z</time></trkpt><trkpt lat="27.913163198108297" lon="-15.589001454854262"><ele>1291.2857142857142</ele><time>2026-05-05T09:11:53.999Z</time></trkpt><trkpt lat="27.913180260375196" lon="-15.589078024518768"><ele>1291.7142857142858</ele><time>2026-05-05T09:12:02.999Z</time></trkpt><trkpt lat="27.913218601256798" lon="-15.58914041940211"><ele>1292.1428571428573</ele><time>2026-05-05T09:12:17.999Z</time></trkpt><trkpt lat="27.913240518771957" lon="-15.589209437204355"><ele>1292.5714285714284</ele><time>2026-05-05T09:12:27.999Z</time></trkpt><trkpt lat="27.913236859938987" lon="-15.58929330564804"><ele>1293.0</ele><time>2026-05-05T09:12:35.999Z</time></trkpt><trkpt lat="27.913225351934933" lon="-15.589371020112493"><ele>1293.0</ele><time>2026-05-05T09:12:41.999Z</time></trkpt><trkpt lat="27.913253348864206" lon="-15.589436481821256"><ele>1293.0</ele><time>2026-05-05T09:12:48.999Z</time></trkpt><trkpt lat="27.9132426438946" lon="-15.589514526212788"><ele>1293.0</ele><time>2026-05-05T09:12:54.999Z</time></trkpt><trkpt lat="27.913232493234315" lon="-15.589589794740723"><ele>1293.0</ele><time>2026-05-05T09:13:01.999Z</time></trkpt><trkpt lat="27.913236347506235" lon="-15.589667120006057"><ele>1293.0</ele><time>2026-05-05T09:13:11.999Z</time></trkpt><trkpt lat="27.913195551003113" lon="-15.589748018528393"><ele>1293.0</ele><time>2026-05-05T09:13:37Z</time></trkpt><trkpt lat="27.91318747513521" lon="-15.589820422848305"><ele>1293.0</ele><time>2026-05-05T09:13:45Z</time></trkpt><trkpt lat="27.913189248165295" lon="-15.589896196147068"><ele>1290.7142857142856</ele><time>2026-05-05T09:14:00Z</time></trkpt><trkpt lat="27.913170564349134" lon="-15.589973969417382"><ele>1288.4285714285716</ele><time>2026-05-05T09:14:06Z</time></trkpt><trkpt lat="27.913153155917097" lon="-15.590053563329544"><ele>1286.142857142857</ele><time>2026-05-05T09:14:31Z</time></trkpt><trkpt lat="27.91315377470007" lon="-15.590135885414949"><ele>1283.8571428571427</ele><time>2026-05-05T09:14:40Z</time></trkpt><trkpt lat="27.913152130951307" lon="-15.590211592923941"><ele>1281.5714285714284</ele><time>2026-05-05T09:14:48Z</time></trkpt><trkpt lat="27.91317356768228" lon="-15.59027906403623"><ele>1279.2857142857142</ele><time>2026-05-05T09:14:58.999Z</time></trkpt><trkpt lat="27.913187797879093" lon="-15.590350554691678"><ele>1277.0</ele><time>2026-05-05T09:15:19.999Z</time></trkpt><trkpt lat="27.913222711833765" lon="-15.590422686522603"><ele>1273.7142857142856</ele><time>2026-05-05T09:15:39.999Z</time></trkpt><trkpt lat="27.913244064603195" lon="-15.590496116028094"><ele>1270.4285714285713</ele><time>2026-05-05T09:15:53Z</time></trkpt><trkpt lat="27.913269773873225" lon="-15.590570365317744"><ele>1267.142857142857</ele><time>2026-05-05T09:16:01Z</time></trkpt><trkpt lat="27.91329253905669" lon="-15.590638046937157"><ele>1263.8571428571427</ele><time>2026-05-05T09:16:10Z</time></trkpt><trkpt lat="27.91331664143372" lon="-15.590708462035481"><ele>1260.5714285714284</ele><time>2026-05-05T09:16:15Z</time></trkpt><trkpt lat="27.913343822631273" lon="-15.59077391447732"><ele>1257.2857142857142</ele><time>2026-05-05T09:16:25Z</time></trkpt><trkpt lat="27.91334783480952" lon="-15.590850634184063"><ele>1254.0</ele><time>2026-05-05T09:16:34Z</time></trkpt><trkpt lat="27.91335597948546" lon="-15.590922173644925"><ele>1254.0</ele><time>2026-05-05T09:16:40Z</time></trkpt><trkpt lat="27.913303136306236" lon="-15.590869869649282"><ele>1254.0</ele><time>2026-05-05T09:16:51Z</time></trkpt><trkpt lat="27.913292202986465" lon="-15.590785941673722"><ele>1254.0</ele><time>2026-05-05T09:16:57.999Z</time></trkpt><trkpt lat="27.913268056172555" lon="-15.590718131379015"><ele>1254.0</ele><time>2026-05-05T09:17:02.999Z</time></trkpt><trkpt lat="27.91322325098973" lon="-15.590653242565804"><ele>1254.0</ele><time>2026-05-05T09:17:08.999Z</time></trkpt><trkpt lat="27.913165038639253" lon="-15.590607486127627"><ele>1254.0</ele><time>2026-05-05T09:17:14.999Z</time></trkpt><trkpt lat="27.913129052319274" lon="-15.590538208680005"><ele>1254.0</ele><time>2026-05-05T09:17:20.999Z</time></trkpt><trkpt lat="27.913088338344128" lon="-15.590480936775487"><ele>1254.0</ele><time>2026-05-05T09:17:25.999Z</time></trkpt><trkpt lat="27.913034642953214" lon="-15.590439627914506"><ele>1254.0</ele><time>2026-05-05T09:17:31.999Z</time></trkpt><trkpt lat="27.912980875866353" lon="-15.59038977412983"><ele>1254.0</ele><time>2026-05-05T09:17:38.999Z</time></trkpt><trkpt lat="27.912936585866174" lon="-15.590337197348092"><ele>1254.0</ele><time>2026-05-05T09:17:43.999Z</time></trkpt><trkpt lat="27.91289862725686" lon="-15.590273978065467"><ele>1254.0</ele><time>2026-05-05T09:17:49Z</time></trkpt><trkpt lat="27.9128606520629" lon="-15.5902136407012"><ele>1254.0</ele><time>2026-05-05T09:17:55Z</time></trkpt><trkpt lat="27.9128113139124" lon="-15.590168581714911"><ele>1254.0</ele><time>2026-05-05T09:18:02Z</time></trkpt><trkpt lat="27.91275055155686" lon="-15.590133375505475"><ele>1251.142857142857</ele><time>2026-05-05T09:18:10Z</time></trkpt><trkpt lat="27.912698844447338" lon="-15.590070405769715"><ele>1248.2857142857142</ele><time>2026-05-05T09:18:16Z</time></trkpt><trkpt lat="27.91266212695611" lon="-15.589996962436823"><ele>1245.4285714285716</ele><time>2026-05-05T09:18:22Z</time></trkpt><trkpt lat="27.912645359674894" lon="-15.58992677466038"><ele>1242.5714285714284</ele><time>2026-05-05T09:18:28Z</time></trkpt><trkpt lat="27.912609126734605" lon="-15.589854610716019"><ele>1239.7142857142856</ele><time>2026-05-05T09:18:35Z</time></trkpt><trkpt lat="27.912557737232447" lon="-15.589803250490469"><ele>1236.857142857143</ele><time>2026-05-05T09:18:43Z</time></trkpt><trkpt lat="27.912505910542976" lon="-15.589759463189015"><ele>1234.0</ele><time>2026-05-05T09:18:50Z</time></trkpt><trkpt lat="27.912455813324453" lon="-15.58969826482038"><ele>1234.0</ele><time>2026-05-05T09:18:56Z</time></trkpt><trkpt lat="27.91241203079515" lon="-15.589645267523212"><ele>1234.0</ele><time>2026-05-05T09:19:01Z</time></trkpt><trkpt lat="27.91236880524977" lon="-15.589576951616493"><ele>1234.0</ele><time>2026-05-05T09:19:07Z</time></trkpt><trkpt lat="27.912337659715746" lon="-15.589492971725168"><ele>1234.0</ele><time>2026-05-05T09:19:14Z</time></trkpt><trkpt lat="27.91226431979241" lon="-15.589476780742388"><ele>1234.0</ele><time>2026-05-05T09:19:20Z</time></trkpt><trkpt lat="27.912187509907508" lon="-15.589482581906333"><ele>1234.0</ele><time>2026-05-05T09:19:29Z</time></trkpt><trkpt lat="27.912124882752327" lon="-15.589510111615667"><ele>1234.0</ele><time>2026-05-05T09:19:36Z</time></trkpt><trkpt lat="27.91207124374462" lon="-15.589549489848633"><ele>1234.0</ele><time>2026-05-05T09:19:49.999Z</time></trkpt><trkpt lat="27.912027658669015" lon="-15.589607851091845"><ele>1234.0</ele><time>2026-05-05T09:19:57.001Z</time></trkpt><trkpt lat="27.911982780566806" lon="-15.589667156321228"><ele>1234.0</ele><time>2026-05-05T09:20:02.001Z</time></trkpt><trkpt lat="27.9119303894545" lon="-15.58972071313495"><ele>1234.0</ele><time>2026-05-05T09:20:07Z</time></trkpt><trkpt lat="27.911866115556197" lon="-15.589728108058136"><ele>1234.0</ele><time>2026-05-05T09:20:11Z</time></trkpt><trkpt lat="27.911791395363323" lon="-15.589744030001743"><ele>1234.0</ele><time>2026-05-05T09:20:15Z</time></trkpt><trkpt lat="27.911729834341017" lon="-15.589761202199975"><ele>1234.0</ele><time>2026-05-05T09:20:19Z</time></trkpt><trkpt lat="27.91166926005798" lon="-15.58978409482135"><ele>1233.0</ele><time>2026-05-05T09:20:26Z</time></trkpt><trkpt lat="27.911610277277024" lon="-15.589822145338497"><ele>1232.0</ele><time>2026-05-05T09:20:33Z</time></trkpt><trkpt lat="27.911541330615897" lon="-15.589853703582422"><ele>1231.0</ele><time>2026-05-05T09:20:40Z</time></trkpt><trkpt lat="27.911477665824275" lon="-15.589854979184322"><ele>1230.0</ele><time>2026-05-05T09:20:45Z</time></trkpt><trkpt lat="27.911395297859844" lon="-15.58988331560076"><ele>1229.0</ele><time>2026-05-05T09:20:50Z</time></trkpt><trkpt lat="27.91134191088768" lon="-15.58992351710095"><ele>1228.0</ele><time>2026-05-05T09:20:56Z</time></trkpt><trkpt lat="27.91128357245464" lon="-15.589953006684913"><ele>1227.0</ele><time>2026-05-05T09:21:01Z</time></trkpt><trkpt lat="27.91122354744358" lon="-15.58998398998356"><ele>1227.0</ele><time>2026-05-05T09:21:07Z</time></trkpt><trkpt lat="27.91116173269917" lon="-15.590022839632088"><ele>1227.0</ele><time>2026-05-05T09:21:14Z</time></trkpt><trkpt lat="27.911091022484044" lon="-15.59003953151605"><ele>1227.0</ele><time>2026-05-05T09:21:18Z</time></trkpt><trkpt lat="27.911027982430593" lon="-15.590077295595778"><ele>1227.0</ele><time>2026-05-05T09:21:23Z</time></trkpt><trkpt lat="27.91095417655935" lon="-15.590102039151839"><ele>1227.0</ele><time>2026-05-05T09:21:28Z</time></trkpt><trkpt lat="27.91089174104147" lon="-15.59013033791362"><ele>1227.0</ele><time>2026-05-05T09:21:33Z</time></trkpt><trkpt lat="27.910829113637405" lon="-15.590163292027567"><ele>1227.0</ele><time>2026-05-05T09:21:38Z</time></trkpt><trkpt lat="27.91077201656026" lon="-15.590203943441754"><ele>1228.7142857142858</ele><time>2026-05-05T09:21:43Z</time></trkpt><trkpt lat="27.9107112630025" lon="-15.59023086973532"><ele>1230.4285714285713</ele><time>2026-05-05T09:21:48Z</time></trkpt><trkpt lat="27.910642016764413" lon="-15.590233851366685"><ele>1232.142857142857</ele><time>2026-05-05T09:21:52.999Z</time></trkpt><trkpt lat="27.910565308908755" lon="-15.590218550372091"><ele>1233.857142857143</ele><time>2026-05-05T09:21:57.999Z</time></trkpt><trkpt lat="27.910499700114972" lon="-15.590193264113083"><ele>1235.5714285714284</ele><time>2026-05-05T09:22:03.001Z</time></trkpt><trkpt lat="27.910438301388933" lon="-15.590140390286212"><ele>1237.2857142857142</ele><time>2026-05-05T09:22:30Z</time></trkpt><trkpt lat="27.910395037888144" lon="-15.590085285243955"><ele>1239.0</ele><time>2026-05-05T09:23:10Z</time></trkpt><trkpt lat="27.910333884437932" lon="-15.590062288953225"><ele>1239.0</ele><time>2026-05-05T09:23:16Z</time></trkpt><trkpt lat="27.91026781639966" lon="-15.590032256249689"><ele>1239.0</ele><time>2026-05-05T09:23:23Z</time></trkpt><trkpt lat="27.910190625119178" lon="-15.5900154793213"><ele>1239.0</ele><time>2026-05-05T09:23:30Z</time></trkpt><trkpt lat="27.910134976332394" lon="-15.589978711764774"><ele>1239.0</ele><time>2026-05-05T09:23:35Z</time></trkpt><trkpt lat="27.91006802901611" lon="-15.589942237927989"><ele>1239.0</ele><time>2026-05-05T09:23:40Z</time></trkpt><trkpt lat="27.91002248905607" lon="-15.589889932200773"><ele>1239.0</ele><time>2026-05-05T09:23:45Z</time></trkpt><trkpt lat="27.909974744142648" lon="-15.589836000212777"><ele>1239.0</ele><time>2026-05-05T09:23:50.999Z</time></trkpt><trkpt lat="27.909938563910472" lon="-15.589770889059402"><ele>1235.7142857142858</ele><time>2026-05-05T09:23:55.999Z</time></trkpt><trkpt lat="27.909896871706007" lon="-15.589713008314915"><ele>1232.4285714285716</ele><time>2026-05-05T09:24:00.999Z</time></trkpt><trkpt lat="27.909853978322964" lon="-15.5896590132257"><ele>1229.142857142857</ele><time>2026-05-05T09:24:05.999Z</time></trkpt><trkpt lat="27.909812026085646" lon="-15.589600859387362"><ele>1225.857142857143</ele><time>2026-05-05T09:24:11.001Z</time></trkpt><trkpt lat="27.909740055395524" lon="-15.58955218060353"><ele>1222.5714285714287</ele><time>2026-05-05T09:24:17.001Z</time></trkpt><trkpt lat="27.909686397982004" lon="-15.589505542640874"><ele>1219.2857142857142</ele><time>2026-05-05T09:24:23Z</time></trkpt><trkpt lat="27.90962112405881" lon="-15.589490292649135"><ele>1216.0</ele><time>2026-05-05T09:24:29Z</time></trkpt><trkpt lat="27.90953910079217" lon="-15.589503914601597"><ele>1219.142857142857</ele><time>2026-05-05T09:24:35Z</time></trkpt><trkpt lat="27.909467750621946" lon="-15.58950629274532"><ele>1222.2857142857144</ele><time>2026-05-05T09:24:41Z</time></trkpt><trkpt lat="27.90940356160992" lon="-15.589484219884548"><ele>1225.4285714285716</ele><time>2026-05-05T09:24:47Z</time></trkpt><trkpt lat="27.909340347258606" lon="-15.589456468089166"><ele>1228.5714285714284</ele><time>2026-05-05T09:24:52Z</time></trkpt><trkpt lat="27.909282248335987" lon="-15.589415317977254"><ele>1231.7142857142858</ele><time>2026-05-05T09:24:58Z</time></trkpt><trkpt lat="27.909205860081382" lon="-15.589428652734073"><ele>1234.857142857143</ele><time>2026-05-05T09:25:06Z</time></trkpt><trkpt lat="27.909145534675798" lon="-15.589476814952075"><ele>1238.0</ele><time>2026-05-05T09:25:12Z</time></trkpt><trkpt lat="27.909089534662165" lon="-15.58951855070025"><ele>1238.0</ele><time>2026-05-05T09:25:18Z</time></trkpt><trkpt lat="27.909030987491505" lon="-15.589546081755833"><ele>1238.0</ele><time>2026-05-05T09:25:22Z</time></trkpt><trkpt lat="27.908962688053997" lon="-15.589540397454238"><ele>1238.0</ele><time>2026-05-05T09:25:27Z</time></trkpt><trkpt lat="27.908896808338085" lon="-15.589540197659884"><ele>1238.0</ele><time>2026-05-05T09:25:31.999Z</time></trkpt><trkpt lat="27.908835010358853" lon="-15.589514555970442"><ele>1238.0</ele><time>2026-05-05T09:25:36.999Z</time></trkpt><trkpt lat="27.908770630247616" lon="-15.589489380150868"><ele>1238.0</ele><time>2026-05-05T09:25:41.999Z</time></trkpt><trkpt lat="27.908707140447166" lon="-15.589470412262255"><ele>1238.0</ele><time>2026-05-05T09:25:46.999Z</time></trkpt><trkpt lat="27.90864376146824" lon="-15.58946102595521"><ele>1238.0</ele><time>2026-05-05T09:25:51.999Z</time></trkpt><trkpt lat="27.9085782271827" lon="-15.589457996504835"><ele>1238.0</ele><time>2026-05-05T09:25:56.999Z</time></trkpt><trkpt lat="27.908506970108192" lon="-15.589442149309846"><ele>1238.0</ele><time>2026-05-05T09:26:03.999Z</time></trkpt><trkpt lat="27.908442291073946" lon="-15.589427203758119"><ele>1238.0</ele><time>2026-05-05T09:26:08.999Z</time></trkpt><trkpt lat="27.908391572924444" lon="-15.589369262866441"><ele>1238.0</ele><time>2026-05-05T09:26:14.001Z</time></trkpt><trkpt lat="27.908338747623535" lon="-15.589313853491197"><ele>1238.0</ele><time>2026-05-05T09:26:19.001Z</time></trkpt><trkpt lat="27.90829762973322" lon="-15.58924332564488"><ele>1238.0</ele><time>2026-05-05T09:26:24Z</time></trkpt><trkpt lat="27.90824070911172" lon="-15.589206359297979"><ele>1236.2857142857142</ele><time>2026-05-05T09:26:31Z</time></trkpt><trkpt lat="27.908186368599914" lon="-15.589166716132478"><ele>1234.5714285714287</ele><time>2026-05-05T09:26:37Z</time></trkpt><trkpt lat="27.908122244104874" lon="-15.589155407989951"><ele>1232.857142857143</ele><time>2026-05-05T09:26:42Z</time></trkpt><trkpt lat="27.9080582826952" lon="-15.58915305627379"><ele>1231.142857142857</ele><time>2026-05-05T09:26:48Z</time></trkpt><trkpt lat="27.908003685529998" lon="-15.589194738514044"><ele>1229.4285714285713</ele><time>2026-05-05T09:26:58Z</time></trkpt><trkpt lat="27.90794531553787" lon="-15.589234232582431"><ele>1227.7142857142858</ele><time>2026-05-05T09:27:05Z</time></trkpt><trkpt lat="27.90788498920688" lon="-15.589266589883996"><ele>1226.0</ele><time>2026-05-05T09:27:10Z</time></trkpt><trkpt lat="27.907831789971187" lon="-15.589307174163077"><ele>1226.0</ele><time>2026-05-05T09:27:15Z</time></trkpt><trkpt lat="27.90776597096798" lon="-15.58933321107732"><ele>1226.0</ele><time>2026-05-05T09:27:20Z</time></trkpt><trkpt lat="27.907704643022353" lon="-15.589357909027342"><ele>1226.0</ele><time>2026-05-05T09:27:25Z</time></trkpt><trkpt lat="27.907613750268688" lon="-15.58934722377274"><ele>1226.0</ele><time>2026-05-05T09:27:29.999Z</time></trkpt><trkpt lat="27.907557265314388" lon="-15.58930318916487"><ele>1226.0</ele><time>2026-05-05T09:27:36.999Z</time></trkpt><trkpt lat="27.907504505109916" lon="-15.589259824576361"><ele>1226.0</ele><time>2026-05-05T09:27:41.999Z</time></trkpt><trkpt lat="27.907453411229188" lon="-15.589204016718451"><ele>1226.0</ele><time>2026-05-05T09:27:47.999Z</time></trkpt><trkpt lat="27.907397030176853" lon="-15.5891446871847"><ele>1225.2857142857142</ele><time>2026-05-05T09:27:53.999Z</time></trkpt><trkpt lat="27.907341265677797" lon="-15.589109508005848"><ele>1224.5714285714284</ele><time>2026-05-05T09:27:59.999Z</time></trkpt><trkpt lat="27.907280453070584" lon="-15.589083794228895"><ele>1223.8571428571427</ele><time>2026-05-05T09:28:06.999Z</time></trkpt><trkpt lat="27.90721435249497" lon="-15.589054154117342"><ele>1223.142857142857</ele><time>2026-05-05T09:28:11.999Z</time></trkpt><trkpt lat="27.907148718765626" lon="-15.58904553020663"><ele>1222.4285714285713</ele><time>2026-05-05T09:28:16.999Z</time></trkpt><trkpt lat="27.907082622540482" lon="-15.589028192809817"><ele>1221.7142857142856</ele><time>2026-05-05T09:28:23Z</time></trkpt><trkpt lat="27.907011637451024" lon="-15.588994876444419"><ele>1221.0</ele><time>2026-05-05T09:28:30Z</time></trkpt><trkpt lat="27.906952125931713" lon="-15.589045749075991"><ele>1220.9999999999998</ele><time>2026-05-05T09:28:36Z</time></trkpt><trkpt lat="27.906892880979147" lon="-15.589096167124463"><ele>1221.0</ele><time>2026-05-05T09:28:43Z</time></trkpt><trkpt lat="27.906825029099792" lon="-15.589128521486517"><ele>1221.0</ele><time>2026-05-05T09:28:50Z</time></trkpt><trkpt lat="27.90677245854379" lon="-15.589169986082313"><ele>1221.0</ele><time>2026-05-05T09:28:55Z</time></trkpt><trkpt lat="27.906697352360084" lon="-15.58920614688165"><ele>1221.0</ele><time>2026-05-05T09:29:02Z</time></trkpt><trkpt lat="27.906646817921526" lon="-15.589257750263972"><ele>1220.9999999999998</ele><time>2026-05-05T09:29:08Z</time></trkpt><trkpt lat="27.90658131064476" lon="-15.589295744864586"><ele>1221.0</ele><time>2026-05-05T09:29:17Z</time></trkpt><trkpt lat="27.906506986998988" lon="-15.58932033060613"><ele>1220.7142857142856</ele><time>2026-05-05T09:29:26.999Z</time></trkpt><trkpt lat="27.906429861854498" lon="-15.589316277708983"><ele>1220.4285714285713</ele><time>2026-05-05T09:29:32.999Z</time></trkpt><trkpt lat="27.906368682352078" lon="-15.58933471462892"><ele>1220.142857142857</ele><time>2026-05-05T09:29:36.999Z</time></trkpt><trkpt lat="27.906302328975574" lon="-15.589338292095235"><ele>1219.8571428571427</ele><time>2026-05-05T09:29:41.999Z</time></trkpt><trkpt lat="27.906237541294953" lon="-15.589335013168347"><ele>1219.5714285714284</ele><time>2026-05-05T09:29:51.999Z</time></trkpt><trkpt lat="27.906167597602284" lon="-15.589368864882603"><ele>1219.2857142857142</ele><time>2026-05-05T09:29:59.999Z</time></trkpt><trkpt lat="27.90609689347611" lon="-15.58939385684892"><ele>1219.0</ele><time>2026-05-05T09:30:06.999Z</time></trkpt><trkpt lat="27.906025168980147" lon="-15.589419920031876"><ele>1219.0</ele><time>2026-05-05T09:30:13.999Z</time></trkpt><trkpt lat="27.905953973477335" lon="-15.589436374116751"><ele>1219.0</ele><time>2026-05-05T09:30:19.999Z</time></trkpt><trkpt lat="27.905890986651542" lon="-15.589441544518719"><ele>1219.0</ele><time>2026-05-05T09:30:25Z</time></trkpt><trkpt lat="27.905815035368803" lon="-15.589447732148681"><ele>1219.0</ele><time>2026-05-05T09:30:30Z</time></trkpt><trkpt lat="27.905755758625396" lon="-15.589416234433019"><ele>1219.0</ele><time>2026-05-05T09:30:35Z</time></trkpt><trkpt lat="27.9056988614235" lon="-15.589361198131302"><ele>1219.0</ele><time>2026-05-05T09:30:42Z</time></trkpt><trkpt lat="27.90564742477627" lon="-15.589304378554322"><ele>1219.0</ele><time>2026-05-05T09:30:48Z</time></trkpt><trkpt lat="27.90558683018146" lon="-15.589259569243527"><ele>1220.4285714285716</ele><time>2026-05-05T09:30:54Z</time></trkpt><trkpt lat="27.905530744619284" lon="-15.589210955400393"><ele>1221.857142857143</ele><time>2026-05-05T09:31:00Z</time></trkpt><trkpt lat="27.90547977792853" lon="-15.589139750508512"><ele>1223.2857142857142</ele><time>2026-05-05T09:31:07Z</time></trkpt><trkpt lat="27.905417998681784" lon="-15.589108143854078"><ele>1224.7142857142858</ele><time>2026-05-05T09:31:13Z</time></trkpt><trkpt lat="27.905339144187415" lon="-15.589106845543569"><ele>1226.142857142857</ele><time>2026-05-05T09:31:21.999Z</time></trkpt><trkpt lat="27.905269017540483" lon="-15.589094032284702"><ele>1227.5714285714287</ele><time>2026-05-05T09:31:27.999Z</time></trkpt><trkpt lat="27.905191288148817" lon="-15.589112117793695"><ele>1229.0</ele><time>2026-05-05T09:31:32.999Z</time></trkpt><trkpt lat="27.90513350114354" lon="-15.589068766664056"><ele>1224.4285714285716</ele><time>2026-05-05T09:31:39.999Z</time></trkpt><trkpt lat="27.90507444502403" lon="-15.58903690280676"><ele>1219.857142857143</ele><time>2026-05-05T09:31:44.999Z</time></trkpt><trkpt lat="27.905010864512462" lon="-15.589032253810409"><ele>1215.2857142857142</ele><time>2026-05-05T09:31:48.999Z</time></trkpt><trkpt lat="27.904965547036564" lon="-15.588981615984228"><ele>1210.7142857142858</ele><time>2026-05-05T09:31:53.999Z</time></trkpt><trkpt lat="27.904914818317117" lon="-15.588920669330824"><ele>1206.142857142857</ele><time>2026-05-05T09:32:00.999Z</time></trkpt><trkpt lat="27.90487855964022" lon="-15.588847203207244"><ele>1201.5714285714287</ele><time>2026-05-05T09:32:04.999Z</time></trkpt><trkpt lat="27.90481702710883" lon="-15.588807353945649"><ele>1197.0</ele><time>2026-05-05T09:32:10.999Z</time></trkpt><trkpt lat="27.904764860261356" lon="-15.588760037702032"><ele>1197.0</ele><time>2026-05-05T09:32:17.999Z</time></trkpt><trkpt lat="27.904717916668133" lon="-15.588705026860742"><ele>1197.0</ele><time>2026-05-05T09:32:23.999Z</time></trkpt><trkpt lat="27.904655775771296" lon="-15.58867521850489"><ele>1197.0</ele><time>2026-05-05T09:32:27.999Z</time></trkpt><trkpt lat="27.90457971854119" lon="-15.588665175613949"><ele>1197.0</ele><time>2026-05-05T09:32:33Z</time></trkpt><trkpt lat="27.904516036600665" lon="-15.588672640500983"><ele>1197.0</ele><time>2026-05-05T09:32:39Z</time></trkpt><trkpt lat="27.90445723904478" lon="-15.588637703798911"><ele>1197.0</ele><time>2026-05-05T09:32:44Z</time></trkpt><trkpt lat="27.90440614220339" lon="-15.5885791428919"><ele>1197.0</ele><time>2026-05-05T09:32:48Z</time></trkpt><trkpt lat="27.904382038243018" lon="-15.588504165059081"><ele>1198.2857142857142</ele><time>2026-05-05T09:32:52Z</time></trkpt><trkpt lat="27.904362208411754" lon="-15.58843578654951"><ele>1199.5714285714284</ele><time>2026-05-05T09:32:57Z</time></trkpt><trkpt lat="27.904340553933196" lon="-15.588348935041507"><ele>1200.857142857143</ele><time>2026-05-05T09:33:03Z</time></trkpt><trkpt lat="27.90431261828415" lon="-15.588279125874337"><ele>1202.142857142857</ele><time>2026-05-05T09:33:09Z</time></trkpt><trkpt lat="27.90427493727426" lon="-15.58822173490224"><ele>1203.4285714285713</ele><time>2026-05-05T09:33:15Z</time></trkpt><trkpt lat="27.904240035863342" lon="-15.588160038144611"><ele>1204.7142857142858</ele><time>2026-05-05T09:33:20.999Z</time></trkpt><trkpt lat="27.904188880998607" lon="-15.588106545393691"><ele>1206.0</ele><time>2026-05-05T09:33:26.999Z</time></trkpt><trkpt lat="27.904128605009166" lon="-15.588061273250787"><ele>1206.0</ele><time>2026-05-05T09:33:33.999Z</time></trkpt><trkpt lat="27.904064975302738" lon="-15.588053717844733"><ele>1206.0</ele><time>2026-05-05T09:33:40.999Z</time></trkpt><trkpt lat="27.903998673418457" lon="-15.588027712806566"><ele>1206.0</ele><time>2026-05-05T09:33:48.999Z</time></trkpt><trkpt lat="27.90392827659732" lon="-15.58798858873893"><ele>1206.0</ele><time>2026-05-05T09:33:54.999Z</time></trkpt><trkpt lat="27.903867684733367" lon="-15.587944528277115"><ele>1206.0</ele><time>2026-05-05T09:33:58.999Z</time></trkpt><trkpt lat="27.90380004909108" lon="-15.587934515016833"><ele>1206.0</ele><time>2026-05-05T09:34:03.999Z</time></trkpt><trkpt lat="27.903735700972387" lon="-15.587911070418633"><ele>1206.0</ele><time>2026-05-05T09:34:08.999Z</time></trkpt><trkpt lat="27.903672064385397" lon="-15.587872287533735"><ele>1211.857142857143</ele><time>2026-05-05T09:34:13.999Z</time></trkpt><trkpt lat="27.90363193723755" lon="-15.58781223468821"><ele>1217.7142857142856</ele><time>2026-05-05T09:34:18.999Z</time></trkpt><trkpt lat="27.903621005239444" lon="-15.587736404674718"><ele>1223.5714285714284</ele><time>2026-05-05T09:34:26.999Z</time></trkpt><trkpt lat="27.903583680415014" lon="-15.587670497297559"><ele>1229.4285714285716</ele><time>2026-05-05T09:35:04Z</time></trkpt><trkpt lat="27.903540997474824" lon="-15.587604689772785"><ele>1235.2857142857142</ele><time>2026-05-05T09:35:11Z</time></trkpt><trkpt lat="27.903508755539605" lon="-15.587529983630024"><ele>1241.142857142857</ele><time>2026-05-05T09:35:18Z</time></trkpt><trkpt lat="27.903471502725722" lon="-15.587461367917468"><ele>1247.0</ele><time>2026-05-05T09:35:27.999Z</time></trkpt><trkpt lat="27.90343246690942" lon="-15.587404979905466"><ele>1239.857142857143</ele><time>2026-05-05T09:35:33.999Z</time></trkpt><trkpt lat="27.903378255974044" lon="-15.587357806725645"><ele>1232.7142857142858</ele><time>2026-05-05T09:35:38.999Z</time></trkpt><trkpt lat="27.903322996455522" lon="-15.587303090177022"><ele>1225.5714285714284</ele><time>2026-05-05T09:35:44.999Z</time></trkpt><trkpt lat="27.90325945648356" lon="-15.587271988144035"><ele>1218.4285714285716</ele><time>2026-05-05T09:35:50.999Z</time></trkpt><trkpt lat="27.903203939747918" lon="-15.587220753625276"><ele>1211.2857142857142</ele><time>2026-05-05T09:35:57.999Z</time></trkpt><trkpt lat="27.903163280951784" lon="-15.587161360185275"><ele>1204.142857142857</ele><time>2026-05-05T09:36:03.999Z</time></trkpt><trkpt lat="27.903133811869914" lon="-15.587088653435135"><ele>1197.0</ele><time>2026-05-05T09:36:08.999Z</time></trkpt><trkpt lat="27.903100143479207" lon="-15.587020368641282"><ele>1203.2857142857142</ele><time>2026-05-05T09:36:13.999Z</time></trkpt><trkpt lat="27.903065077251625" lon="-15.586959411150474"><ele>1209.5714285714284</ele><time>2026-05-05T09:36:19.999Z</time></trkpt><trkpt lat="27.90300331759241" lon="-15.586912494763865"><ele>1215.857142857143</ele><time>2026-05-05T09:36:25.999Z</time></trkpt><trkpt lat="27.90294207256109" lon="-15.586868100394696"><ele>1222.142857142857</ele><time>2026-05-05T09:36:31.999Z</time></trkpt><trkpt lat="27.902881087968726" lon="-15.586812212011399"><ele>1228.4285714285713</ele><time>2026-05-05T09:36:38.998Z</time></trkpt><trkpt lat="27.90281973878343" lon="-15.5867961745544"><ele>1234.7142857142858</ele><time>2026-05-05T09:36:46Z</time></trkpt><trkpt lat="27.90275087655036" lon="-15.586790690670654"><ele>1241.0</ele><time>2026-05-05T09:36:52Z</time></trkpt><trkpt lat="27.902686162484564" lon="-15.586778148265019"><ele>1241.0</ele><time>2026-05-05T09:37:00Z</time></trkpt><trkpt lat="27.902634811042997" lon="-15.5867349069641"><ele>1241.0</ele><time>2026-05-05T09:37:04Z</time></trkpt><trkpt lat="27.902576709190274" lon="-15.586700059188228"><ele>1241.0</ele><time>2026-05-05T09:37:09Z</time></trkpt><trkpt lat="27.90251784949849" lon="-15.586672588226008"><ele>1241.0</ele><time>2026-05-05T09:37:15Z</time></trkpt><trkpt lat="27.90244725233361" lon="-15.586646151850863"><ele>1241.0</ele><time>2026-05-05T09:37:20Z</time></trkpt><trkpt lat="27.90238092967286" lon="-15.5866149914125"><ele>1241.0</ele><time>2026-05-05T09:37:25.999Z</time></trkpt><trkpt lat="27.902320764750716" lon="-15.586580249824772"><ele>1241.0</ele><time>2026-05-05T09:37:30.999Z</time></trkpt><trkpt lat="27.9022570458564" lon="-15.586544355799909"><ele>1233.5714285714287</ele><time>2026-05-05T09:37:36.999Z</time></trkpt><trkpt lat="27.90219536540683" lon="-15.586528095868209"><ele>1226.142857142857</ele><time>2026-05-05T09:37:42.999Z</time></trkpt><trkpt lat="27.90213299171181" lon="-15.586499509210128"><ele>1218.7142857142858</ele><time>2026-05-05T09:37:48.999Z</time></trkpt><trkpt lat="27.90207018268025" lon="-15.586494459240877"><ele>1211.2857142857142</ele><time>2026-05-05T09:37:54.999Z</time></trkpt><trkpt lat="27.902001268177177" lon="-15.586500290100526"><ele>1203.857142857143</ele><time>2026-05-05T09:38:02.999Z</time></trkpt><trkpt lat="27.901929706779573" lon="-15.586528088846826"><ele>1196.4285714285713</ele><time>2026-05-05T09:38:32.999Z</time></trkpt><trkpt lat="27.90186029345985" lon="-15.586504539858192"><ele>1189.0</ele><time>2026-05-05T09:38:40.998Z</time></trkpt><trkpt lat="27.901801575530243" lon="-15.586470175110689"><ele>1185.4285714285713</ele><time>2026-05-05T09:38:46.998Z</time></trkpt><trkpt lat="27.901741541852477" lon="-15.586433145423422"><ele>1181.857142857143</ele><time>2026-05-05T09:38:53Z</time></trkpt><trkpt lat="27.9016909175571" lon="-15.586385731370228"><ele>1178.2857142857142</ele><time>2026-05-05T09:38:58Z</time></trkpt><trkpt lat="27.90163935118223" lon="-15.586336585255317"><ele>1174.7142857142858</ele><time>2026-05-05T09:39:04Z</time></trkpt><trkpt lat="27.90157611732418" lon="-15.586295384526263"><ele>1171.142857142857</ele><time>2026-05-05T09:39:11Z</time></trkpt><trkpt lat="27.901505230832765" lon="-15.586291930063712"><ele>1167.5714285714284</ele><time>2026-05-05T09:39:16Z</time></trkpt><trkpt lat="27.901442154000623" lon="-15.586283099923754"><ele>1164.0</ele><time>2026-05-05T09:39:21Z</time></trkpt><trkpt lat="27.90137410143965" lon="-15.586281791302797"><ele>1164.0</ele><time>2026-05-05T09:39:27Z</time></trkpt><trkpt lat="27.901302461035943" lon="-15.586279400130767"><ele>1164.0</ele><time>2026-05-05T09:39:33.999Z</time></trkpt><trkpt lat="27.901228684393327" lon="-15.586251076239426"><ele>1164.0</ele><time>2026-05-05T09:39:39.999Z</time></trkpt><trkpt lat="27.901163855396003" lon="-15.586253304833262"><ele>1164.0</ele><time>2026-05-05T09:40:19.999Z</time></trkpt><trkpt lat="27.90110532492383" lon="-15.586220579483166"><ele>1164.0</ele><time>2026-05-05T09:40:35.999Z</time></trkpt><trkpt lat="27.90117516094487" lon="-15.586243715010465"><ele>1164.0</ele><time>2026-05-05T09:40:51.998Z</time></trkpt><trkpt lat="27.90109948597299" lon="-15.586253425543381"><ele>1164.0</ele><time>2026-05-05T09:41:18Z</time></trkpt><trkpt lat="27.900988034077688" lon="-15.586300759335819"><ele>1164.0</ele><time>2026-05-05T09:42:17.999Z</time></trkpt><trkpt lat="27.90092740225399" lon="-15.586253729506105"><ele>1164.0</ele><time>2026-05-05T09:42:25.999Z</time></trkpt><trkpt lat="27.900867385181325" lon="-15.586204123066723"><ele>1164.0</ele><time>2026-05-05T09:42:31.999Z</time></trkpt><trkpt lat="27.900815607743624" lon="-15.586147756504216"><ele>1164.0</ele><time>2026-05-05T09:42:37.999Z</time></trkpt><trkpt lat="27.90074395390847" lon="-15.586144247750743"><ele>1164.0</ele><time>2026-05-05T09:42:45.999Z</time></trkpt><trkpt lat="27.900674936550562" lon="-15.586100410277625"><ele>1164.0</ele><time>2026-05-05T09:42:53.998Z</time></trkpt><trkpt lat="27.900611444419862" lon="-15.586056476276703"><ele>1164.0</ele><time>2026-05-05T09:43:00.999Z</time></trkpt><trkpt lat="27.900541378429928" lon="-15.58604899902102"><ele>1165.0</ele><time>2026-05-05T09:43:06.999Z</time></trkpt><trkpt lat="27.90047910726853" lon="-15.586016162163084"><ele>1166.0</ele><time>2026-05-05T09:43:10.999Z</time></trkpt><trkpt lat="27.900425178111796" lon="-15.585975163642946"><ele>1167.0</ele><time>2026-05-05T09:43:17.999Z</time></trkpt><trkpt lat="27.90040152784342" lon="-15.585905587449739"><ele>1168.0</ele><time>2026-05-05T09:43:24.999Z</time></trkpt><trkpt lat="27.900358015895513" lon="-15.5858489100174"><ele>1169.0</ele><time>2026-05-05T09:43:34.999Z</time></trkpt><trkpt lat="27.900310592797783" lon="-15.585795319696693"><ele>1170.0</ele><time>2026-05-05T09:43:47.999Z</time></trkpt><trkpt lat="27.900282497988375" lon="-15.585723398209637"><ele>1171.0</ele><time>2026-05-05T09:43:55.999Z</time></trkpt><trkpt lat="27.900247963959973" lon="-15.585653552064572"><ele>1171.0</ele><time>2026-05-05T09:44:05.999Z</time></trkpt><trkpt lat="27.900226824884673" lon="-15.58558529659725"><ele>1171.0</ele><time>2026-05-05T09:44:15.999Z</time></trkpt><trkpt lat="27.900210296892862" lon="-15.585508139841806"><ele>1171.0</ele><time>2026-05-05T09:44:25.999Z</time></trkpt><trkpt lat="27.90018140952157" lon="-15.585441332371573"><ele>1171.0</ele><time>2026-05-05T09:44:35.999Z</time></trkpt><trkpt lat="27.900148840738495" lon="-15.585378387819565"><ele>1171.0</ele><time>2026-05-05T09:44:47.999Z</time></trkpt><trkpt lat="27.900099568910132" lon="-15.585332838692532"><ele>1171.0</ele><time>2026-05-05T09:44:52.999Z</time></trkpt><trkpt lat="27.900056659962406" lon="-15.585273163381725"><ele>1171.0</ele><time>2026-05-05T09:45:02.998Z</time></trkpt><trkpt lat="27.900023944101566" lon="-15.585207699257378"><ele>1171.0</ele><time>2026-05-05T09:45:10Z</time></trkpt><trkpt lat="27.900075678331387" lon="-15.585164502261492"><ele>1171.0</ele><time>2026-05-05T09:45:32Z</time></trkpt><trkpt lat="27.90013530029896" lon="-15.585199990669976"><ele>1171.0</ele><time>2026-05-05T09:45:39Z</time></trkpt><trkpt lat="27.900196303780884" lon="-15.585232054267605"><ele>1171.0</ele><time>2026-05-05T09:45:46Z</time></trkpt><trkpt lat="27.90025002419296" lon="-15.585270328756666"><ele>1171.0</ele><time>2026-05-05T09:45:53Z</time></trkpt><trkpt lat="27.900285537480507" lon="-15.58534166375961"><ele>1171.0</ele><time>2026-05-05T09:45:58.999Z</time></trkpt><trkpt lat="27.900318118863964" lon="-15.58541424540201"><ele>1171.0</ele><time>2026-05-05T09:46:05.999Z</time></trkpt><trkpt lat="27.90033329520687" lon="-15.58548995112901"><ele>1171.0</ele><time>2026-05-05T09:46:15.999Z</time></trkpt><trkpt lat="27.900371415665436" lon="-15.58555033623153"><ele>1171.0</ele><time>2026-05-05T09:46:23.999Z</time></trkpt><trkpt lat="27.900425541404225" lon="-15.585588033317176"><ele>1171.0</ele><time>2026-05-05T09:46:29.999Z</time></trkpt><trkpt lat="27.900480933550437" lon="-15.585626675014469"><ele>1171.0</ele><time>2026-05-05T09:46:36.999Z</time></trkpt><trkpt lat="27.90053275914469" lon="-15.585683441102832"><ele>1171.0</ele><time>2026-05-05T09:46:43.999Z</time></trkpt><trkpt lat="27.900594475989287" lon="-15.585700871144795"><ele>1171.0</ele><time>2026-05-05T09:46:53.999Z</time></trkpt><trkpt lat="27.900657435719843" lon="-15.585732719501378"><ele>1171.0</ele><time>2026-05-05T09:47:00.999Z</time></trkpt><trkpt lat="27.90071780947967" lon="-15.585757799078905"><ele>1171.0</ele><time>2026-05-05T09:47:11Z</time></trkpt><trkpt lat="27.900783594733515" lon="-15.585751296386212"><ele>1171.0</ele><time>2026-05-05T09:47:20Z</time></trkpt><trkpt lat="27.900852566539125" lon="-15.585774818067895"><ele>1171.0</ele><time>2026-05-05T09:47:26Z</time></trkpt><trkpt lat="27.90092071109753" lon="-15.585786603915077"><ele>1171.0</ele><time>2026-05-05T09:47:34Z</time></trkpt><trkpt lat="27.90100471484927" lon="-15.585806037072963"><ele>1171.0</ele><time>2026-05-05T09:47:48Z</time></trkpt><trkpt lat="27.901075055957453" lon="-15.585806279435195"><ele>1171.0</ele><time>2026-05-05T09:47:56Z</time></trkpt><trkpt lat="27.901181293992614" lon="-15.585804505224107"><ele>1169.7142857142858</ele><time>2026-05-05T09:48:32Z</time></trkpt><trkpt lat="27.901243277080102" lon="-15.585789447835417"><ele>1168.4285714285713</ele><time>2026-05-05T09:48:40.999Z</time></trkpt><trkpt lat="27.90132728115495" lon="-15.58576946297864"><ele>1167.142857142857</ele><time>2026-05-05T09:49:00.999Z</time></trkpt><trkpt lat="27.901400516815496" lon="-15.585783696800629"><ele>1165.857142857143</ele><time>2026-05-05T09:49:09.999Z</time></trkpt><trkpt lat="27.9014704520261" lon="-15.58579614757983"><ele>1164.5714285714284</ele><time>2026-05-05T09:49:18Z</time></trkpt><trkpt lat="27.90154121758439" lon="-15.58578953108195"><ele>1163.2857142857142</ele><time>2026-05-05T09:49:27Z</time></trkpt><trkpt lat="27.90160873263517" lon="-15.58576948173378"><ele>1162.0</ele><time>2026-05-05T09:49:38Z</time></trkpt><trkpt lat="27.901656585719444" lon="-15.585722389420528"><ele>1162.0</ele><time>2026-05-05T09:49:47Z</time></trkpt><trkpt lat="27.901714142601655" lon="-15.585681295578905"><ele>1162.0</ele><time>2026-05-05T09:49:54Z</time></trkpt><trkpt lat="27.90173758006192" lon="-15.585609518255833"><ele>1162.0</ele><time>2026-05-05T09:50:29Z</time></trkpt><trkpt lat="27.901669378110896" lon="-15.58560870121088"><ele>1162.0</ele><time>2026-05-05T09:52:03Z</time></trkpt><trkpt lat="27.901605185148245" lon="-15.585608387997349"><ele>1162.0</ele><time>2026-05-05T09:52:16.999Z</time></trkpt><trkpt lat="27.90153956836366" lon="-15.585629651895337"><ele>1162.0</ele><time>2026-05-05T09:52:23.999Z</time></trkpt><trkpt lat="27.901473783481016" lon="-15.585603718681726"><ele>1162.0</ele><time>2026-05-05T09:52:32.999Z</time></trkpt><trkpt lat="27.901403071791318" lon="-15.58558472429379"><ele>1162.0</ele><time>2026-05-05T09:52:48.999Z</time></trkpt><trkpt lat="27.901342582098625" lon="-15.585554854466508"><ele>1162.0</ele><time>2026-05-05T09:53:57Z</time></trkpt><trkpt lat="27.90127586365826" lon="-15.58554246322786"><ele>1162.0</ele><time>2026-05-05T09:54:05Z</time></trkpt><trkpt lat="27.90120830114929" lon="-15.585495438592458"><ele>1162.0</ele><time>2026-05-05T09:54:14Z</time></trkpt><trkpt lat="27.901161402550343" lon="-15.585443806694604"><ele>1162.0</ele><time>2026-05-05T09:54:20.999Z</time></trkpt><trkpt lat="27.901210520175173" lon="-15.585392279395684"><ele>1162.0</ele><time>2026-05-05T09:54:33.999Z</time></trkpt><trkpt lat="27.901279252319977" lon="-15.58538178186406"><ele>1162.0</ele><time>2026-05-05T09:54:38.999Z</time></trkpt><trkpt lat="27.901344734453257" lon="-15.585372702365715"><ele>1162.0</ele><time>2026-05-05T09:54:43.999Z</time></trkpt><trkpt lat="27.901417778314816" lon="-15.585382978013818"><ele>1162.0</ele><time>2026-05-05T09:55:05.999Z</time></trkpt><trkpt lat="27.901481136436363" lon="-15.585354334723386"><ele>1162.0</ele><time>2026-05-05T09:55:10.999Z</time></trkpt><trkpt lat="27.90153188330281" lon="-15.58529393720869"><ele>1162.0</ele><time>2026-05-05T09:55:21.999Z</time></trkpt><trkpt lat="27.901552011236117" lon="-15.58522116559681"><ele>1162.0</ele><time>2026-05-05T09:55:31.999Z</time></trkpt><trkpt lat="27.901587525335966" lon="-15.58515478785048"><ele>1162.0</ele><time>2026-05-05T09:55:39Z</time></trkpt><trkpt lat="27.90161361777204" lon="-15.585082753518632"><ele>1162.0</ele><time>2026-05-05T09:55:58Z</time></trkpt><trkpt lat="27.901625739475726" lon="-15.585006333879432"><ele>1156.857142857143</ele><time>2026-05-05T09:56:09Z</time></trkpt><trkpt lat="27.901603573753523" lon="-15.5849386489286"><ele>1151.7142857142858</ele><time>2026-05-05T09:56:15Z</time></trkpt><trkpt lat="27.90160668973394" lon="-15.584860526080334"><ele>1146.5714285714284</ele><time>2026-05-05T09:56:28Z</time></trkpt><trkpt lat="27.90162777931333" lon="-15.584787106913708"><ele>1141.4285714285716</ele><time>2026-05-05T09:56:37Z</time></trkpt><trkpt lat="27.9016506293406" lon="-15.584718520386419"><ele>1136.2857142857142</ele><time>2026-05-05T09:56:45Z</time></trkpt><trkpt lat="27.90165465628939" lon="-15.584643990719172"><ele>1131.142857142857</ele><time>2026-05-05T09:56:52.999Z</time></trkpt><trkpt lat="27.90166870545301" lon="-15.584569396433487"><ele>1126.0</ele><time>2026-05-05T09:57:03.999Z</time></trkpt><trkpt lat="27.90170908193079" lon="-15.584505820530376"><ele>1122.2857142857142</ele><time>2026-05-05T09:57:12.999Z</time></trkpt><trkpt lat="27.901739760660913" lon="-15.584441918872843"><ele>1118.5714285714287</ele><time>2026-05-05T09:57:22.999Z</time></trkpt><trkpt lat="27.901725979340767" lon="-15.584371958066022"><ele>1114.857142857143</ele><time>2026-05-05T09:57:35.999Z</time></trkpt><trkpt lat="27.901712779676977" lon="-15.584294818630665"><ele>1111.142857142857</ele><time>2026-05-05T09:57:46Z</time></trkpt><trkpt lat="27.901711283877155" lon="-15.584221850525914"><ele>1107.4285714285713</ele><time>2026-05-05T09:57:56Z</time></trkpt><trkpt lat="27.901714232833065" lon="-15.584141508622483"><ele>1103.7142857142858</ele><time>2026-05-05T09:58:04Z</time></trkpt><trkpt lat="27.90174390786039" lon="-15.584073764333963"><ele>1100.0</ele><time>2026-05-05T09:58:10Z</time></trkpt><trkpt lat="27.90179477640619" lon="-15.58402621399353"><ele>1108.0</ele><time>2026-05-05T09:58:16Z</time></trkpt><trkpt lat="27.90182121691866" lon="-15.5839579468965"><ele>1116.0</ele><time>2026-05-05T09:58:35Z</time></trkpt><trkpt lat="27.9018607730789" lon="-15.583899985178379"><ele>1124.0</ele><time>2026-05-05T09:58:42Z</time></trkpt><trkpt lat="27.90189934495552" lon="-15.583840301140837"><ele>1132.0</ele><time>2026-05-05T09:58:49Z</time></trkpt><trkpt lat="27.901952231938292" lon="-15.583784456673957"><ele>1140.0</ele><time>2026-05-05T09:58:56Z</time></trkpt><trkpt lat="27.9019699111489" lon="-15.58371214567373"><ele>1148.0</ele><time>2026-05-05T09:59:07.999Z</time></trkpt><trkpt lat="27.902009941557296" lon="-15.583650464802924"><ele>1156.0</ele><time>2026-05-05T09:59:14.999Z</time></trkpt><trkpt lat="27.902038902976408" lon="-15.58358522286202"><ele>1156.0</ele><time>2026-05-05T09:59:24.999Z</time></trkpt><trkpt lat="27.90202300196781" lon="-15.583511866545358"><ele>1156.0</ele><time>2026-05-05T09:59:53Z</time></trkpt><trkpt lat="27.901972715813805" lon="-15.583462473882111"><ele>1156.0</ele><time>2026-05-05T10:00:16Z</time></trkpt><trkpt lat="27.901947203001153" lon="-15.583383383810924"><ele>1156.0</ele><time>2026-05-05T10:00:26Z</time></trkpt><trkpt lat="27.901924185332664" lon="-15.583313220249085"><ele>1156.0</ele><time>2026-05-05T10:00:32Z</time></trkpt><trkpt lat="27.90192493695335" lon="-15.58323783514337"><ele>1156.0</ele><time>2026-05-05T10:00:40Z</time></trkpt><trkpt lat="27.90191992822787" lon="-15.583142407588412"><ele>1156.0</ele><time>2026-05-05T10:00:47Z</time></trkpt><trkpt lat="27.901902761865074" lon="-15.583070267139586"><ele>1156.0</ele><time>2026-05-05T10:00:53Z</time></trkpt><trkpt lat="27.901917369981714" lon="-15.582999460762588"><ele>1156.0</ele><time>2026-05-05T10:00:58Z</time></trkpt><trkpt lat="27.901958568544256" lon="-15.582944685558603"><ele>1156.0</ele><time>2026-05-05T10:01:03Z</time></trkpt><trkpt lat="27.902014264567672" lon="-15.582903152429381"><ele>1156.0</ele><time>2026-05-05T10:02:00.999Z</time></trkpt><trkpt lat="27.901999313872853" lon="-15.582825773625192"><ele>1156.0</ele><time>2026-05-05T10:02:10Z</time></trkpt><trkpt lat="27.901980747202533" lon="-15.582749168178568"><ele>1156.0</ele><time>2026-05-05T10:02:23Z</time></trkpt><trkpt lat="27.90199886500741" lon="-15.582643031076872"><ele>1156.0</ele><time>2026-05-05T10:03:08.999Z</time></trkpt><trkpt lat="27.90194754582549" lon="-15.582589951219195"><ele>1152.857142857143</ele><time>2026-05-05T10:03:30.999Z</time></trkpt><trkpt lat="27.901917199179877" lon="-15.582520903225406"><ele>1149.7142857142858</ele><time>2026-05-05T10:03:39.999Z</time></trkpt><trkpt lat="27.901928498692563" lon="-15.58244573727232"><ele>1146.5714285714284</ele><time>2026-05-05T10:03:46.999Z</time></trkpt><trkpt lat="27.90195381946185" lon="-15.582368956370804"><ele>1143.4285714285716</ele><time>2026-05-05T10:03:53.999Z</time></trkpt><trkpt lat="27.901965923314602" lon="-15.582286046382716"><ele>1140.2857142857142</ele><time>2026-05-05T10:03:59.999Z</time></trkpt><trkpt lat="27.90196852928008" lon="-15.582205041475694"><ele>1137.142857142857</ele><time>2026-05-05T10:04:05.999Z</time></trkpt><trkpt lat="27.90195314083394" lon="-15.58212274467072"><ele>1134.0</ele><time>2026-05-05T10:04:11.999Z</time></trkpt><trkpt lat="27.901933680662367" lon="-15.582047408750178"><ele>1125.6666666666667</ele><time>2026-05-05T10:04:20Z</time></trkpt><trkpt lat="27.9020051931375" lon="-15.582005179431256"><ele>1117.3333333333333</ele><time>2026-05-05T10:04:33Z</time></trkpt><trkpt lat="27.901965112138242" lon="-15.58194839124224"><ele>1109.0</ele><time>2026-05-05T10:04:44Z</time></trkpt><trkpt lat="27.90198000863892" lon="-15.58187861967618"><ele>1100.6666666666665</ele><time>2026-05-05T10:04:50.999Z</time></trkpt><trkpt lat="27.90203849829299" lon="-15.581826843942999"><ele>1092.3333333333333</ele><time>2026-05-05T10:04:57.999Z</time></trkpt><trkpt lat="27.90210470276722" lon="-15.581743625777076"><ele>1084.0</ele><time>2026-05-05T10:05:43.999Z</time></trkpt><trkpt lat="27.902173208834302" lon="-15.58172932460111"><ele>1084.0</ele><time>2026-05-05T10:05:56.999Z</time></trkpt><trkpt lat="27.902236989617645" lon="-15.581715241806137"><ele>1084.0</ele><time>2026-05-05T10:06:06.999Z</time></trkpt><trkpt lat="27.902305823154233" lon="-15.581704527393265"><ele>1084.0</ele><time>2026-05-05T10:06:13.999Z</time></trkpt><trkpt lat="27.90236952197093" lon="-15.581685349125257"><ele>1084.0</ele><time>2026-05-05T10:06:20Z</time></trkpt><trkpt lat="27.902433669843614" lon="-15.581662642919271"><ele>1084.0</ele><time>2026-05-05T10:06:28Z</time></trkpt><trkpt lat="27.902500117717036" lon="-15.58165016304956"><ele>1084.0</ele><time>2026-05-05T10:06:36Z</time></trkpt><trkpt lat="27.90255643627493" lon="-15.581600076587952"><ele>1084.0</ele><time>2026-05-05T10:06:50Z</time></trkpt><trkpt lat="27.902619336400605" lon="-15.581564850897736"><ele>1090.4285714285713</ele><time>2026-05-05T10:07:00Z</time></trkpt><trkpt lat="27.90266662149302" lon="-15.581503837876735"><ele>1096.857142857143</ele><time>2026-05-05T10:07:07Z</time></trkpt><trkpt lat="27.902714175384254" lon="-15.581455077331324"><ele>1103.2857142857142</ele><time>2026-05-05T10:07:13Z</time></trkpt><trkpt lat="27.902766236271912" lon="-15.58140884489894"><ele>1109.7142857142858</ele><time>2026-05-05T10:07:19Z</time></trkpt><trkpt lat="27.902823871981674" lon="-15.58136682064484"><ele>1116.142857142857</ele><time>2026-05-05T10:07:23.999Z</time></trkpt><trkpt lat="27.90288259138397" lon="-15.58132383048371"><ele>1122.5714285714284</ele><time>2026-05-05T10:07:29.999Z</time></trkpt><trkpt lat="27.90294306893532" lon="-15.581285543633163"><ele>1129.0</ele><time>2026-05-05T10:08:36Z</time></trkpt><trkpt lat="27.90299261514335" lon="-15.58123137679868"><ele>1129.0</ele><time>2026-05-05T10:08:42Z</time></trkpt><trkpt lat="27.903051918383863" lon="-15.581195129887613"><ele>1129.0</ele><time>2026-05-05T10:08:48Z</time></trkpt><trkpt lat="27.903117297875202" lon="-15.581181496298747"><ele>1129.0</ele><time>2026-05-05T10:08:55Z</time></trkpt><trkpt lat="27.90318110599462" lon="-15.581179302613595"><ele>1129.0</ele><time>2026-05-05T10:09:02Z</time></trkpt><trkpt lat="27.903245734639075" lon="-15.581189081459764"><ele>1129.0</ele><time>2026-05-05T10:09:16Z</time></trkpt><trkpt lat="27.903312103578255" lon="-15.581166753481737"><ele>1129.0</ele><time>2026-05-05T10:09:23Z</time></trkpt><trkpt lat="27.903364697831766" lon="-15.581119281063033"><ele>1129.0</ele><time>2026-05-05T10:09:31Z</time></trkpt><trkpt lat="27.903392224667016" lon="-15.581051401060176"><ele>1121.4285714285713</ele><time>2026-05-05T10:09:37Z</time></trkpt><trkpt lat="27.90342802881356" lon="-15.580981902099985"><ele>1113.8571428571427</ele><time>2026-05-05T10:09:43Z</time></trkpt><trkpt lat="27.903464943588517" lon="-15.580921841159748"><ele>1106.2857142857142</ele><time>2026-05-05T10:09:49Z</time></trkpt><trkpt lat="27.903534861565554" lon="-15.580873816533908"><ele>1098.7142857142858</ele><time>2026-05-05T10:10:09Z</time></trkpt><trkpt lat="27.903587170554577" lon="-15.580833201333784"><ele>1091.1428571428573</ele><time>2026-05-05T10:10:13.999Z</time></trkpt><trkpt lat="27.90362216006647" lon="-15.580761156328233"><ele>1083.5714285714287</ele><time>2026-05-05T10:10:21Z</time></trkpt><trkpt lat="27.903691331925103" lon="-15.580749550628054"><ele>1076.0</ele><time>2026-05-05T10:10:28Z</time></trkpt><trkpt lat="27.903754609828837" lon="-15.580735572844306"><ele>1076.0</ele><time>2026-05-05T10:10:36Z</time></trkpt><trkpt lat="27.90381681157304" lon="-15.580752600578457"><ele>1076.0</ele><time>2026-05-05T10:12:12Z</time></trkpt><trkpt lat="27.903878919345143" lon="-15.580733478057374"><ele>1076.0</ele><time>2026-05-05T10:12:25Z</time></trkpt><trkpt lat="27.903951409255694" lon="-15.580718626263513"><ele>1076.0</ele><time>2026-05-05T10:12:33Z</time></trkpt><trkpt lat="27.90401489075177" lon="-15.580727613215627"><ele>1076.0</ele><time>2026-05-05T10:12:40Z</time></trkpt><trkpt lat="27.904087275180043" lon="-15.580727262170575"><ele>1076.0</ele><time>2026-05-05T10:12:47Z</time></trkpt><trkpt lat="27.904150938303406" lon="-15.580721164609505"><ele>1076.0</ele><time>2026-05-05T10:12:53Z</time></trkpt><trkpt lat="27.904222021363655" lon="-15.580687502124022"><ele>1077.0</ele><time>2026-05-05T10:13:00Z</time></trkpt><trkpt lat="27.904287463658473" lon="-15.580665485278702"><ele>1078.0</ele><time>2026-05-05T10:13:07Z</time></trkpt><trkpt lat="27.904352464042372" lon="-15.580673273285605"><ele>1079.0</ele><time>2026-05-05T10:13:14Z</time></trkpt><trkpt lat="27.90442587376039" lon="-15.580690169858716"><ele>1080.0</ele><time>2026-05-05T10:13:22Z</time></trkpt><trkpt lat="27.904489496972776" lon="-15.580680599888982"><ele>1081.0</ele><time>2026-05-05T10:13:32Z</time></trkpt><trkpt lat="27.904584778526356" lon="-15.580638085937746"><ele>1082.0</ele><time>2026-05-05T10:13:57Z</time></trkpt><trkpt lat="27.904640039337146" lon="-15.580599925624432"><ele>1083.0</ele><time>2026-05-05T10:14:04Z</time></trkpt><trkpt lat="27.904704454183488" lon="-15.580565177007479"><ele>1083.0</ele><time>2026-05-05T10:14:08Z</time></trkpt><trkpt lat="27.90476639908707" lon="-15.580546138815407"><ele>1083.0</ele><time>2026-05-05T10:14:14Z</time></trkpt><trkpt lat="27.904832085079693" lon="-15.580527313324072"><ele>1083.0</ele><time>2026-05-05T10:14:20Z</time></trkpt><trkpt lat="27.904899043346557" lon="-15.580516866416774"><ele>1083.0</ele><time>2026-05-05T10:14:26Z</time></trkpt><trkpt lat="27.904960479372466" lon="-15.580498265734311"><ele>1083.0</ele><time>2026-05-05T10:14:32.001Z</time></trkpt><trkpt lat="27.905026357389822" lon="-15.580495560147842"><ele>1083.0</ele><time>2026-05-05T10:14:38Z</time></trkpt><trkpt lat="27.90509041016043" lon="-15.58048482819636"><ele>1083.0</ele><time>2026-05-05T10:14:44Z</time></trkpt><trkpt lat="27.905160859732614" lon="-15.580482760899127"><ele>1081.857142857143</ele><time>2026-05-05T10:14:51Z</time></trkpt><trkpt lat="27.905224991260393" lon="-15.580492837109944"><ele>1080.7142857142858</ele><time>2026-05-05T10:14:57Z</time></trkpt><trkpt lat="27.90527057118518" lon="-15.580550486239208"><ele>1079.5714285714287</ele><time>2026-05-05T10:15:05Z</time></trkpt><trkpt lat="27.905305413132027" lon="-15.580613341220285"><ele>1078.4285714285716</ele><time>2026-05-05T10:15:12Z</time></trkpt><trkpt lat="27.905375362668593" lon="-15.580637813550855"><ele>1077.2857142857142</ele><time>2026-05-05T10:15:21Z</time></trkpt><trkpt lat="27.90543900329165" lon="-15.580632854509254"><ele>1076.1428571428573</ele><time>2026-05-05T10:15:29Z</time></trkpt><trkpt lat="27.90549947359608" lon="-15.580597541793605"><ele>1075.0</ele><time>2026-05-05T10:15:38Z</time></trkpt><trkpt lat="27.905564470300813" lon="-15.580586093745396"><ele>1075.0000000000002</ele><time>2026-05-05T10:16:12Z</time></trkpt><trkpt lat="27.90563432491807" lon="-15.580571049053233"><ele>1075.0</ele><time>2026-05-05T10:16:19Z</time></trkpt><trkpt lat="27.90570140750888" lon="-15.580566042370023"><ele>1075.0</ele><time>2026-05-05T10:16:25Z</time></trkpt><trkpt lat="27.905766611428497" lon="-15.580552653931633"><ele>1075.0</ele><time>2026-05-05T10:16:31Z</time></trkpt><trkpt lat="27.905830969615067" lon="-15.580549336329208"><ele>1075.0</ele><time>2026-05-05T10:16:37.001Z</time></trkpt><trkpt lat="27.905900935687473" lon="-15.580556357613775"><ele>1075.0000000000002</ele><time>2026-05-05T10:16:44Z</time></trkpt><trkpt lat="27.90596446410731" lon="-15.580566364446097"><ele>1075.0</ele><time>2026-05-05T10:16:49Z</time></trkpt><trkpt lat="27.906033359084073" lon="-15.580589539334937"><ele>1074.0000000000002</ele><time>2026-05-05T10:16:55Z</time></trkpt><trkpt lat="27.906097562065135" lon="-15.580620035999484"><ele>1073.0</ele><time>2026-05-05T10:17:02Z</time></trkpt><trkpt lat="27.90616231630228" lon="-15.580642786666068"><ele>1072.0</ele><time>2026-05-05T10:17:08Z</time></trkpt><trkpt lat="27.90622873394218" lon="-15.580633683862564"><ele>1071.0</ele><time>2026-05-05T10:17:14Z</time></trkpt><trkpt lat="27.906287209880155" lon="-15.580601270420729"><ele>1070.0</ele><time>2026-05-05T10:17:21Z</time></trkpt><trkpt lat="27.90635142734246" lon="-15.580590619035783"><ele>1069.0000000000002</ele><time>2026-05-05T10:17:27Z</time></trkpt><trkpt lat="27.906411883102027" lon="-15.580566095389987"><ele>1068.0</ele><time>2026-05-05T10:17:34Z</time></trkpt><trkpt lat="27.906482940619508" lon="-15.580574746113276"><ele>1068.0000000000002</ele><time>2026-05-05T10:17:40Z</time></trkpt><trkpt lat="27.906553265495543" lon="-15.580594773132386"><ele>1068.0</ele><time>2026-05-05T10:17:46Z</time></trkpt><trkpt lat="27.906617861778134" lon="-15.580628508861755"><ele>1068.0</ele><time>2026-05-05T10:17:51Z</time></trkpt><trkpt lat="27.906679090873652" lon="-15.58064898977718"><ele>1068.0</ele><time>2026-05-05T10:17:57Z</time></trkpt><trkpt lat="27.90675277329326" lon="-15.58068070552249"><ele>1068.0</ele><time>2026-05-05T10:18:04Z</time></trkpt><trkpt lat="27.9068201952892" lon="-15.580675914212357"><ele>1068.0000000000002</ele><time>2026-05-05T10:18:10Z</time></trkpt><trkpt lat="27.906888626198086" lon="-15.580707564544854"><ele>1068.0</ele><time>2026-05-05T10:18:15Z</time></trkpt><trkpt lat="27.906942864308725" lon="-15.580748157970849"><ele>1065.4285714285716</ele><time>2026-05-05T10:18:20Z</time></trkpt><trkpt lat="27.907016421687587" lon="-15.580764160977926"><ele>1062.857142857143</ele><time>2026-05-05T10:18:27Z</time></trkpt><trkpt lat="27.907092229562583" lon="-15.580780329341549"><ele>1060.2857142857142</ele><time>2026-05-05T10:18:33Z</time></trkpt><trkpt lat="27.907166729451" lon="-15.580797070085424"><ele>1057.7142857142858</ele><time>2026-05-05T10:18:42Z</time></trkpt><trkpt lat="27.907224703548888" lon="-15.580832392493383"><ele>1055.142857142857</ele><time>2026-05-05T10:18:49Z</time></trkpt><trkpt lat="27.90729854089383" lon="-15.580849575840197"><ele>1052.5714285714287</ele><time>2026-05-05T10:18:57Z</time></trkpt><trkpt lat="27.907375465004765" lon="-15.580853549199098"><ele>1050.0</ele><time>2026-05-05T10:19:05Z</time></trkpt><trkpt lat="27.907434817375258" lon="-15.580880253657764"><ele>1050.0</ele><time>2026-05-05T10:19:11Z</time></trkpt><trkpt lat="27.90749714789761" lon="-15.580913785423633"><ele>1050.0</ele><time>2026-05-05T10:19:17Z</time></trkpt><trkpt lat="27.907563971844958" lon="-15.580914993683182"><ele>1050.0</ele><time>2026-05-05T10:19:23Z</time></trkpt><trkpt lat="27.90762954314428" lon="-15.580911232245972"><ele>1050.0</ele><time>2026-05-05T10:19:33Z</time></trkpt><trkpt lat="27.907697213526635" lon="-15.580870995386485"><ele>1050.0</ele><time>2026-05-05T10:19:42Z</time></trkpt><trkpt lat="27.90775744544434" lon="-15.580833036645982"><ele>1050.0</ele><time>2026-05-05T10:19:51Z</time></trkpt><trkpt lat="27.907823504616122" lon="-15.58078698385484"><ele>1050.0</ele><time>2026-05-05T10:20:20Z</time></trkpt><trkpt lat="27.90788858733331" lon="-15.580788387733294"><ele>1048.7142857142858</ele><time>2026-05-05T10:20:28Z</time></trkpt><trkpt lat="27.90795989914915" lon="-15.580799532018922"><ele>1047.4285714285716</ele><time>2026-05-05T10:20:36Z</time></trkpt><trkpt lat="27.90803479849873" lon="-15.580808907900904"><ele>1046.142857142857</ele><time>2026-05-05T10:20:44.999Z</time></trkpt><trkpt lat="27.908096260422642" lon="-15.580835228950633"><ele>1044.857142857143</ele><time>2026-05-05T10:20:55Z</time></trkpt><trkpt lat="27.908161932098636" lon="-15.580839899211497"><ele>1043.5714285714287</ele><time>2026-05-05T10:21:04Z</time></trkpt><trkpt lat="27.908230863554532" lon="-15.58084939417259"><ele>1042.2857142857142</ele><time>2026-05-05T10:21:12Z</time></trkpt><trkpt lat="27.908292364372098" lon="-15.580825634073165"><ele>1041.0</ele><time>2026-05-05T10:21:20Z</time></trkpt><trkpt lat="27.908361403875794" lon="-15.580823201372127"><ele>1039.857142857143</ele><time>2026-05-05T10:21:28Z</time></trkpt><trkpt lat="27.90843040887384" lon="-15.580801860414779"><ele>1038.7142857142858</ele><time>2026-05-05T10:22:04Z</time></trkpt><trkpt lat="27.908502855472182" lon="-15.580777844408974"><ele>1037.5714285714287</ele><time>2026-05-05T10:22:12Z</time></trkpt><trkpt lat="27.908566189692284" lon="-15.580766189847209"><ele>1036.4285714285716</ele><time>2026-05-05T10:22:21Z</time></trkpt><trkpt lat="27.908635464396085" lon="-15.580754757848643"><ele>1035.2857142857142</ele><time>2026-05-05T10:22:28.999Z</time></trkpt><trkpt lat="27.90869854498556" lon="-15.580739230496524"><ele>1034.1428571428573</ele><time>2026-05-05T10:22:34.999Z</time></trkpt><trkpt lat="27.908762809827937" lon="-15.580732504608836"><ele>1033.0</ele><time>2026-05-05T10:22:39.999Z</time></trkpt><trkpt lat="27.908829719889265" lon="-15.580723129681322"><ele>1033.0000000000002</ele><time>2026-05-05T10:22:46.999Z</time></trkpt><trkpt lat="27.908899902923597" lon="-15.58072339487303"><ele>1033.0</ele><time>2026-05-05T10:22:54Z</time></trkpt><trkpt lat="27.9089631063205" lon="-15.58071986795888"><ele>1033.0</ele><time>2026-05-05T10:23:00Z</time></trkpt><trkpt lat="27.909031242801614" lon="-15.580713726209494"><ele>1033.0</ele><time>2026-05-05T10:23:08Z</time></trkpt><trkpt lat="27.90909953941977" lon="-15.580689936604351"><ele>1033.0</ele><time>2026-05-05T10:23:18Z</time></trkpt><trkpt lat="27.90916381588882" lon="-15.58066904865987"><ele>1033.0000000000002</ele><time>2026-05-05T10:23:27Z</time></trkpt><trkpt lat="27.909224528042536" lon="-15.580640874147464"><ele>1033.0</ele><time>2026-05-05T10:23:38Z</time></trkpt><trkpt lat="27.90928472982366" lon="-15.580616084470899"><ele>1030.7142857142858</ele><time>2026-05-05T10:23:46Z</time></trkpt><trkpt lat="27.909347801988922" lon="-15.58060258722565"><ele>1028.4285714285716</ele><time>2026-05-05T10:23:57Z</time></trkpt><trkpt lat="27.909412466875683" lon="-15.58059794093083"><ele>1026.142857142857</ele><time>2026-05-05T10:24:06Z</time></trkpt><trkpt lat="27.909480960957268" lon="-15.580594700827103"><ele>1023.8571428571429</ele><time>2026-05-05T10:24:14Z</time></trkpt><trkpt lat="27.909547954880903" lon="-15.58058748650606"><ele>1021.5714285714284</ele><time>2026-05-05T10:24:22Z</time></trkpt><trkpt lat="27.909613222607994" lon="-15.58056748855949"><ele>1019.2857142857142</ele><time>2026-05-05T10:24:31.999Z</time></trkpt><trkpt lat="27.909676396717884" lon="-15.580531762008563"><ele>1017.0</ele><time>2026-05-05T10:24:41.999Z</time></trkpt><trkpt lat="27.90973756952097" lon="-15.580504332242667"><ele>1017.0</ele><time>2026-05-05T10:24:51.999Z</time></trkpt><trkpt lat="27.909800264432747" lon="-15.580472399408606"><ele>1016.9999999999999</ele><time>2026-05-05T10:25:01Z</time></trkpt><trkpt lat="27.909867134453105" lon="-15.580462941547273"><ele>1017.0</ele><time>2026-05-05T10:25:11Z</time></trkpt><trkpt lat="27.90993194348479" lon="-15.580437755711795"><ele>1017.0</ele><time>2026-05-05T10:25:18Z</time></trkpt><trkpt lat="27.909998784195075" lon="-15.580425559664942"><ele>1016.9999999999999</ele><time>2026-05-05T10:25:24Z</time></trkpt><trkpt lat="27.91006338081384" lon="-15.580392984524225"><ele>1017.0</ele><time>2026-05-05T10:25:30Z</time></trkpt><trkpt lat="27.910121100129434" lon="-15.580342332669343"><ele>1017.0</ele><time>2026-05-05T10:25:37Z</time></trkpt><trkpt lat="27.910174479225404" lon="-15.580303057794257"><ele>1014.8571428571428</ele><time>2026-05-05T10:25:45Z</time></trkpt><trkpt lat="27.910223139329602" lon="-15.580248782515254"><ele>1012.7142857142856</ele><time>2026-05-05T10:25:53Z</time></trkpt><trkpt lat="27.910279330745336" lon="-15.580208133294667"><ele>1010.5714285714286</ele><time>2026-05-05T10:25:59Z</time></trkpt><trkpt lat="27.91033833017203" lon="-15.5801762909088"><ele>1008.4285714285713</ele><time>2026-05-05T10:26:05Z</time></trkpt><trkpt lat="27.910403965776954" lon="-15.580145067959597"><ele>1006.2857142857142</ele><time>2026-05-05T10:26:11Z</time></trkpt><trkpt lat="27.91046559814936" lon="-15.580104647175595"><ele>1004.1428571428571</ele><time>2026-05-05T10:26:24Z</time></trkpt><trkpt lat="27.910525179029893" lon="-15.580061448263573"><ele>1002.0</ele><time>2026-05-05T10:26:53.999Z</time></trkpt><trkpt lat="27.910578694423236" lon="-15.58001985247894"><ele>1002.0</ele><time>2026-05-05T10:27:00.999Z</time></trkpt><trkpt lat="27.91063028525213" lon="-15.579969001844864"><ele>1002.0</ele><time>2026-05-05T10:27:07Z</time></trkpt><trkpt lat="27.91068235485769" lon="-15.579928436745877"><ele>1002.0</ele><time>2026-05-05T10:27:13Z</time></trkpt><trkpt lat="27.91073695929221" lon="-15.579887086525192"><ele>1002.0</ele><time>2026-05-05T10:27:18Z</time></trkpt><trkpt lat="27.910805561309722" lon="-15.579882982358013"><ele>1002.0</ele><time>2026-05-05T10:27:25Z</time></trkpt><trkpt lat="27.91086941356848" lon="-15.579911915458146"><ele>1002.0</ele><time>2026-05-05T10:27:31Z</time></trkpt><trkpt lat="27.910935454909268" lon="-15.579941261153332"><ele>1002.0</ele><time>2026-05-05T10:27:38Z</time></trkpt><trkpt lat="27.911003452670368" lon="-15.579957073727353"><ele>1002.8571428571429</ele><time>2026-05-05T10:27:45Z</time></trkpt><trkpt lat="27.9110691830219" lon="-15.579952404993374"><ele>1003.7142857142857</ele><time>2026-05-05T10:27:51Z</time></trkpt><trkpt lat="27.911133858305586" lon="-15.579941628237139"><ele>1004.5714285714286</ele><time>2026-05-05T10:27:57Z</time></trkpt><trkpt lat="27.911193996418966" lon="-15.579912782903346"><ele>1005.4285714285714</ele><time>2026-05-05T10:28:03Z</time></trkpt><trkpt lat="27.91125415517119" lon="-15.579877665084064"><ele>1006.2857142857142</ele><time>2026-05-05T10:28:08Z</time></trkpt><trkpt lat="27.9113102452291" lon="-15.579842144919489"><ele>1007.1428571428571</ele><time>2026-05-05T10:28:15Z</time></trkpt><trkpt lat="27.911350420117724" lon="-15.579772907799843"><ele>1008.0</ele><time>2026-05-05T10:28:23Z</time></trkpt><trkpt lat="27.91138411392252" lon="-15.579705266597141"><ele>1008.0</ele><time>2026-05-05T10:28:29Z</time></trkpt><trkpt lat="27.911418554976517" lon="-15.57963910987981"><ele>1008.0</ele><time>2026-05-05T10:28:36Z</time></trkpt><trkpt lat="27.911452853196952" lon="-15.57956254427556"><ele>1008.0</ele><time>2026-05-05T10:28:43.999Z</time></trkpt><trkpt lat="27.911492915288438" lon="-15.579502291724245"><ele>1008.0</ele><time>2026-05-05T10:28:49.999Z</time></trkpt><trkpt lat="27.911524180074835" lon="-15.579435539419466"><ele>1008.0</ele><time>2026-05-05T10:28:56.999Z</time></trkpt><trkpt lat="27.911557245787154" lon="-15.579370548470393"><ele>1008.0</ele><time>2026-05-05T10:29:03.999Z</time></trkpt><trkpt lat="27.91158798160285" lon="-15.579296975383048"><ele>1008.0</ele><time>2026-05-05T10:29:11Z</time></trkpt><trkpt lat="27.911618881808906" lon="-15.579229039861332"><ele>1007.8571428571429</ele><time>2026-05-05T10:29:17Z</time></trkpt><trkpt lat="27.91164015283021" lon="-15.579160695896414"><ele>1007.7142857142858</ele><time>2026-05-05T10:29:26Z</time></trkpt><trkpt lat="27.911659967307795" lon="-15.579088892719394"><ele>1007.5714285714286</ele><time>2026-05-05T10:29:33Z</time></trkpt><trkpt lat="27.911686029276822" lon="-15.579015838103711"><ele>1007.4285714285714</ele><time>2026-05-05T10:29:40Z</time></trkpt><trkpt lat="27.911722227637373" lon="-15.578940875320793"><ele>1007.2857142857143</ele><time>2026-05-05T10:29:45Z</time></trkpt><trkpt lat="27.911758304081868" lon="-15.578876276979829"><ele>1007.1428571428571</ele><time>2026-05-05T10:29:51Z</time></trkpt><trkpt lat="27.911789783051432" lon="-15.578804433561753"><ele>1007.0</ele><time>2026-05-05T10:29:57Z</time></trkpt><trkpt lat="27.91183096499459" lon="-15.578742890951904"><ele>1004.5714285714286</ele><time>2026-05-05T10:30:03Z</time></trkpt><trkpt lat="27.911859461477906" lon="-15.578676447002827"><ele>1002.1428571428571</ele><time>2026-05-05T10:30:09Z</time></trkpt><trkpt lat="27.91189751369354" lon="-15.578610216808283"><ele>999.7142857142857</ele><time>2026-05-05T10:30:15Z</time></trkpt><trkpt lat="27.911927184853166" lon="-15.578536198855092"><ele>997.2857142857142</ele><time>2026-05-05T10:30:24Z</time></trkpt><trkpt lat="27.91198023464478" lon="-15.578489986038774"><ele>994.8571428571429</ele><time>2026-05-05T10:30:41Z</time></trkpt><trkpt lat="27.912041864495787" lon="-15.578450993382159"><ele>992.4285714285713</ele><time>2026-05-05T10:30:49Z</time></trkpt><trkpt lat="27.91209269725566" lon="-15.578395800598003"><ele>989.9999999999999</ele><time>2026-05-05T10:30:56Z</time></trkpt><trkpt lat="27.912153512878984" lon="-15.578345455236855"><ele>989.9999999999999</ele><time>2026-05-05T10:31:07Z</time></trkpt><trkpt lat="27.91221476693629" lon="-15.578313130408999"><ele>990.0</ele><time>2026-05-05T10:31:12.999Z</time></trkpt><trkpt lat="27.912273439206604" lon="-15.578281225360724"><ele>989.9999999999999</ele><time>2026-05-05T10:31:19Z</time></trkpt><trkpt lat="27.91233901000801" lon="-15.57827251302982"><ele>989.9999999999999</ele><time>2026-05-05T10:31:27Z</time></trkpt><trkpt lat="27.9124136722163" lon="-15.57828700542576"><ele>990.0</ele><time>2026-05-05T10:31:35Z</time></trkpt><trkpt lat="27.91247433805197" lon="-15.578319091208979"><ele>989.9999999999999</ele><time>2026-05-05T10:31:43Z</time></trkpt><trkpt lat="27.912536433136566" lon="-15.578337592470081"><ele>989.9999999999999</ele><time>2026-05-05T10:31:50Z</time></trkpt><trkpt lat="27.91259401420764" lon="-15.578372631924193"><ele>988.5714285714284</ele><time>2026-05-05T10:31:57Z</time></trkpt><trkpt lat="27.912654920742092" lon="-15.578399526009232"><ele>987.1428571428571</ele><time>2026-05-05T10:32:04Z</time></trkpt><trkpt lat="27.912739336026508" lon="-15.57844788776964"><ele>985.7142857142857</ele><time>2026-05-05T10:32:31Z</time></trkpt><trkpt lat="27.91280647796321" lon="-15.578456617456826"><ele>984.2857142857142</ele><time>2026-05-05T10:32:44Z</time></trkpt><trkpt lat="27.912874573631623" lon="-15.578463618613364"><ele>982.8571428571429</ele><time>2026-05-05T10:32:51Z</time></trkpt><trkpt lat="27.91293786176289" lon="-15.578457987286587"><ele>981.4285714285714</ele><time>2026-05-05T10:32:56Z</time></trkpt><trkpt lat="27.91299968975871" lon="-15.578477037746685"><ele>980.0</ele><time>2026-05-05T10:33:03Z</time></trkpt><trkpt lat="27.913068102484498" lon="-15.5784670844602"><ele>980.0</ele><time>2026-05-05T10:33:11Z</time></trkpt><trkpt lat="27.91314608161384" lon="-15.578462637496044"><ele>980.0</ele><time>2026-05-05T10:33:18Z</time></trkpt><trkpt lat="27.91320952641356" lon="-15.578454499416072"><ele>980.0</ele><time>2026-05-05T10:33:25Z</time></trkpt><trkpt lat="27.913293442332296" lon="-15.578463490321798"><ele>980.0</ele><time>2026-05-05T10:34:03Z</time></trkpt><trkpt lat="27.913365520220026" lon="-15.578448576414354"><ele>980.0</ele><time>2026-05-05T10:34:09Z</time></trkpt><trkpt lat="27.913431186857505" lon="-15.578440200031263"><ele>980.0</ele><time>2026-05-05T10:34:15Z</time></trkpt><trkpt lat="27.913502436489885" lon="-15.578431650693483"><ele>980.0</ele><time>2026-05-05T10:34:21Z</time></trkpt><trkpt lat="27.913568021812996" lon="-15.578408386193745"><ele>978.5714285714286</ele><time>2026-05-05T10:34:27Z</time></trkpt><trkpt lat="27.913636592709672" lon="-15.578399190405461"><ele>977.1428571428571</ele><time>2026-05-05T10:34:34Z</time></trkpt><trkpt lat="27.9137002977812" lon="-15.578395705118732"><ele>975.7142857142858</ele><time>2026-05-05T10:34:39Z</time></trkpt><trkpt lat="27.91376413472696" lon="-15.578386795672118"><ele>974.2857142857143</ele><time>2026-05-05T10:34:50Z</time></trkpt><trkpt lat="27.91382928016677" lon="-15.578361943466483"><ele>972.8571428571429</ele><time>2026-05-05T10:34:58Z</time></trkpt><trkpt lat="27.91390035328639" lon="-15.57835078150555"><ele>971.4285714285716</ele><time>2026-05-05T10:35:06Z</time></trkpt><trkpt lat="27.913960860046245" lon="-15.578325956271868"><ele>970.0000000000001</ele><time>2026-05-05T10:35:12Z</time></trkpt><trkpt lat="27.914008473526074" lon="-15.578270945622348"><ele>970.0000000000001</ele><time>2026-05-05T10:35:26Z</time></trkpt><trkpt lat="27.914085693085397" lon="-15.578246845816839"><ele>970.0</ele><time>2026-05-05T10:35:47Z</time></trkpt><trkpt lat="27.914131251105736" lon="-15.578187396574533"><ele>970.0000000000001</ele><time>2026-05-05T10:36:10Z</time></trkpt><trkpt lat="27.914189529425215" lon="-15.578155904775878"><ele>970.0000000000001</ele><time>2026-05-05T10:36:17Z</time></trkpt><trkpt lat="27.914248968813126" lon="-15.578122750880434"><ele>970.0</ele><time>2026-05-05T10:36:23Z</time></trkpt><trkpt lat="27.91430822659356" lon="-15.578089708784793"><ele>970.0000000000001</ele><time>2026-05-05T10:36:29Z</time></trkpt><trkpt lat="27.914374063763596" lon="-15.578062956862176"><ele>970.0000000000001</ele><time>2026-05-05T10:36:36Z</time></trkpt><trkpt lat="27.91443586992062" lon="-15.578028882776369"><ele>969.857142857143</ele><time>2026-05-05T10:36:42Z</time></trkpt><trkpt lat="27.914495987071778" lon="-15.577990591134373"><ele>969.7142857142858</ele><time>2026-05-05T10:36:48Z</time></trkpt><trkpt lat="27.914557991085832" lon="-15.577956301980112"><ele>969.5714285714286</ele><time>2026-05-05T10:36:54Z</time></trkpt><trkpt lat="27.91461720323743" lon="-15.577908891469903"><ele>969.4285714285714</ele><time>2026-05-05T10:37:00Z</time></trkpt><trkpt lat="27.914678188401375" lon="-15.577865419456316"><ele>969.2857142857142</ele><time>2026-05-05T10:37:06Z</time></trkpt><trkpt lat="27.91472881225471" lon="-15.577822242097488"><ele>969.142857142857</ele><time>2026-05-05T10:37:12Z</time></trkpt><trkpt lat="27.9147920297776" lon="-15.577774956403623"><ele>968.9999999999999</ele><time>2026-05-05T10:37:19Z</time></trkpt><trkpt lat="27.914848342294615" lon="-15.577726949568879"><ele>968.142857142857</ele><time>2026-05-05T10:37:24.999Z</time></trkpt><trkpt lat="27.914901005366485" lon="-15.577687342274498"><ele>967.2857142857142</ele><time>2026-05-05T10:37:31.999Z</time></trkpt><trkpt lat="27.914932675986986" lon="-15.577622140549748"><ele>966.4285714285714</ele><time>2026-05-05T10:37:39Z</time></trkpt><trkpt lat="27.915003833541874" lon="-15.577615326429717"><ele>965.5714285714286</ele><time>2026-05-05T10:37:47Z</time></trkpt><trkpt lat="27.915072722243824" lon="-15.577605878446661"><ele>964.7142857142858</ele><time>2026-05-05T10:37:53Z</time></trkpt><trkpt lat="27.915139348494634" lon="-15.577587723610868"><ele>963.857142857143</ele><time>2026-05-05T10:37:59Z</time></trkpt><trkpt lat="27.915204220013905" lon="-15.57756761634098"><ele>963.0000000000001</ele><time>2026-05-05T10:38:09Z</time></trkpt><trkpt lat="27.91527298117214" lon="-15.57756162069315"><ele>963.0000000000001</ele><time>2026-05-05T10:38:25Z</time></trkpt><trkpt lat="27.915338045386093" lon="-15.577556978606852"><ele>963.0</ele><time>2026-05-05T10:38:33Z</time></trkpt><trkpt lat="27.915427979835634" lon="-15.577571828179861"><ele>963.0000000000001</ele><time>2026-05-05T10:38:55Z</time></trkpt><trkpt lat="27.91549368291426" lon="-15.577559279720086"><ele>963.0000000000001</ele><time>2026-05-05T10:39:02Z</time></trkpt><trkpt lat="27.915565278313508" lon="-15.577553508221946"><ele>963.0</ele><time>2026-05-05T10:39:08Z</time></trkpt><trkpt lat="27.915631478934873" lon="-15.577542244200236"><ele>963.0000000000001</ele><time>2026-05-05T10:39:13.999Z</time></trkpt><trkpt lat="27.91569575589628" lon="-15.57753561760081"><ele>963.0000000000001</ele><time>2026-05-05T10:39:19.999Z</time></trkpt><trkpt lat="27.915775347179213" lon="-15.577526730736832"><ele>963.0000000000001</ele><time>2026-05-05T10:39:25.999Z</time></trkpt><trkpt lat="27.91584468564754" lon="-15.577525122266747"><ele>963.0</ele><time>2026-05-05T10:39:32.999Z</time></trkpt><trkpt lat="27.915908936500813" lon="-15.577520650471348"><ele>963.0000000000001</ele><time>2026-05-05T10:39:37.999Z</time></trkpt><trkpt lat="27.91598123024359" lon="-15.577510887110458"><ele>963.0000000000001</ele><time>2026-05-05T10:39:45Z</time></trkpt><trkpt lat="27.9160490136423" lon="-15.577498774990733"><ele>963.0</ele><time>2026-05-05T10:39:51Z</time></trkpt><trkpt lat="27.916112081050855" lon="-15.577476042581118"><ele>963.0000000000001</ele><time>2026-05-05T10:39:57Z</time></trkpt><trkpt lat="27.91617615693562" lon="-15.577473738100606"><ele>963.0000000000001</ele><time>2026-05-05T10:40:02Z</time></trkpt><trkpt lat="27.916252862475403" lon="-15.577447910118714"><ele>962.5714285714287</ele><time>2026-05-05T10:40:08Z</time></trkpt><trkpt lat="27.91632257797716" lon="-15.57742492989138"><ele>962.1428571428571</ele><time>2026-05-05T10:40:15Z</time></trkpt><trkpt lat="27.916395953540295" lon="-15.577409378368019"><ele>961.7142857142858</ele><time>2026-05-05T10:40:21Z</time></trkpt><trkpt lat="27.916464113056186" lon="-15.57738709274973"><ele>961.2857142857143</ele><time>2026-05-05T10:40:27Z</time></trkpt><trkpt lat="27.91653200666682" lon="-15.577367134942207"><ele>960.8571428571429</ele><time>2026-05-05T10:40:34Z</time></trkpt><trkpt lat="27.916589463278143" lon="-15.577330835223615"><ele>960.4285714285714</ele><time>2026-05-05T10:40:46Z</time></trkpt><trkpt lat="27.916647962513572" lon="-15.577304422720832"><ele>960.0</ele><time>2026-05-05T10:40:52Z</time></trkpt><trkpt lat="27.916716341490513" lon="-15.577277765955762"><ele>959.7142857142858</ele><time>2026-05-05T10:40:59Z</time></trkpt><trkpt lat="27.916779226394212" lon="-15.577246508976375"><ele>959.4285714285713</ele><time>2026-05-05T10:41:06Z</time></trkpt><trkpt lat="27.916844618397217" lon="-15.577204668291856"><ele>959.1428571428571</ele><time>2026-05-05T10:41:16Z</time></trkpt><trkpt lat="27.91690352232596" lon="-15.577178548746058"><ele>958.8571428571429</ele><time>2026-05-05T10:41:22.999Z</time></trkpt><trkpt lat="27.916970282375164" lon="-15.577154548913143"><ele>958.5714285714287</ele><time>2026-05-05T10:41:28.999Z</time></trkpt><trkpt lat="27.917030143830168" lon="-15.577126559699906"><ele>958.2857142857142</ele><time>2026-05-05T10:41:34.999Z</time></trkpt><trkpt lat="27.917099573328912" lon="-15.577101003813336"><ele>958.0</ele><time>2026-05-05T10:41:40.999Z</time></trkpt><trkpt lat="27.917160287984185" lon="-15.577069916070524"><ele>958.0</ele><time>2026-05-05T10:41:48Z</time></trkpt><trkpt lat="27.917230689190106" lon="-15.577041060616802"><ele>958.0</ele><time>2026-05-05T10:41:54Z</time></trkpt><trkpt lat="27.917291863733833" lon="-15.577015996644157"><ele>961.0</ele><time>2026-05-05T10:42:00Z</time></trkpt><trkpt lat="27.917367229539877" lon="-15.577029127632478"><ele>958.0</ele><time>2026-05-05T10:42:07Z</time></trkpt><trkpt lat="27.9174314099406" lon="-15.577039211683863"><ele>958.0</ele><time>2026-05-05T10:42:13Z</time></trkpt></trkseg></trk></gpx>